PWSweather.com
Personal Weather Stations
Station Observations
LEXWEATHER
Outlook Drive, Lexington, MA 02421

Outlook DriveLexington, MA 02421

Lat: 42.43983, Lon: -71.24049

Elevation: 276

Station Type: Davis Vantage Pro2 Wireless

Latest ConditionsUpdated 7:09:02 AM EST Sunday, Jan 20, 2019
Currently Today's Max Today's Min Today's Average
Temperature 27.9°F-2.3°C 32.2°F0.1°C 27.7°F-2.4°C 29.5°F-1.4°C
Dew Point 26.4°F-3.1°C 31.1°F-0.5°C 26.2°F-3.2°C 28.3°F-2.1°C
Winds 2.9 mph N4.7 kmh N 4.0 mph -6.4 kmh - - 2.2 mph 3.5 kmh
Wind Gusts 2.9 mph4.7 kmh 13.0 mph20.9 kmh - -
Humidity 94% 96% 94% 95%
Pressure 29.62 in1003.0 mb 30.05 in1017.6 mb 29.61 in1002.7 mb -
Precipitation - 0.01 in0.3 mm - -
Hour Temp Dew Point Humidity Winds Wind Gusts Pressure Precip Precip Rate Daily Precip Total
07:09 AM 27.9°F-2.3°C 26.4°F-3.1°C 94% 2.9 mph N4.7 kmh N 2.9 mph4.7 kmh 29.62 in1003.0 mb 0.01 in0.3 mm 0.00 in0.0 mm 0.01 in0.3 mm
07:08 AM 28.0°F-2.2°C 26.6°F-3.0°C 94% 2.9 mph N4.7 kmh N 4.9 mph7.9 kmh 29.61 in1002.7 mb 0.01 in0.3 mm 0.00 in0.0 mm 0.01 in0.3 mm
07:07 AM 28.2°F-2.1°C 26.8°F-2.9°C 94% 2.9 mph NE4.7 kmh NE 2.9 mph4.7 kmh 29.61 in1002.7 mb 0.01 in0.3 mm 0.00 in0.0 mm 0.01 in0.3 mm
07:06 AM 28.4°F-2.0°C 27.0°F-2.8°C 94% 2.9 mph ENE4.7 kmh ENE 8.1 mph13.0 kmh 29.62 in1003.0 mb 0.01 in0.3 mm 0.00 in0.0 mm 0.01 in0.3 mm
07:05 AM 28.8°F-1.8°C 27.3°F-2.6°C 94% 2.9 mph NE4.7 kmh NE 6.9 mph11.1 kmh 29.62 in1003.0 mb 0.01 in0.3 mm 0.00 in0.0 mm 0.01 in0.3 mm
07:04 AM 29.1°F-1.6°C 27.7°F-2.4°C 94% 2.9 mph E4.7 kmh E 6.9 mph11.1 kmh 29.62 in1003.0 mb 0.01 in0.3 mm 0.00 in0.0 mm 0.01 in0.3 mm
07:03 AM 29.5°F-1.4°C 28.0°F-2.2°C 94% 2.9 mph NE4.7 kmh NE 4.0 mph6.4 kmh 29.62 in1003.0 mb 0.01 in0.3 mm 0.00 in0.0 mm 0.01 in0.3 mm
07:02 AM 29.7°F-1.3°C 28.2°F-2.1°C 94% 2.9 mph NNE4.7 kmh NNE 4.9 mph7.9 kmh 29.62 in1003.0 mb 0.01 in0.3 mm 0.00 in0.0 mm 0.01 in0.3 mm
07:00 AM 29.8°F-1.2°C 28.4°F-2.0°C 94% 2.9 mph NNE4.7 kmh NNE 4.9 mph7.9 kmh 29.62 in1003.0 mb 0.01 in0.3 mm 0.00 in0.0 mm 0.01 in0.3 mm
06:59 AM 30.0°F-1.1°C 28.6°F-1.9°C 94% 2.0 mph ENE3.2 kmh ENE 2.9 mph4.7 kmh 29.62 in1003.0 mb 0.01 in0.3 mm 0.00 in0.0 mm 0.01 in0.3 mm
06:58 AM 30.4°F-0.9°C 28.9°F-1.7°C 94% 2.0 mph E3.2 kmh E 6.0 mph9.7 kmh 29.62 in1003.0 mb 0.01 in0.3 mm 0.00 in0.0 mm 0.01 in0.3 mm
06:57 AM 30.6°F-0.8°C 29.3°F-1.5°C 95% 2.0 mph E3.2 kmh E 6.0 mph9.7 kmh 29.62 in1003.0 mb 0.01 in0.3 mm 0.00 in0.0 mm 0.01 in0.3 mm
06:56 AM 30.9°F-0.6°C 29.7°F-1.3°C 95% 2.0 mph NW3.2 kmh NW 2.9 mph4.7 kmh 29.63 in1003.4 mb 0.01 in0.3 mm 0.00 in0.0 mm 0.01 in0.3 mm
06:55 AM 31.3°F-0.4°C 30.0°F-1.1°C 95% 2.0 mph NW3.2 kmh NW 6.9 mph11.1 kmh 29.63 in1003.4 mb 0.01 in0.3 mm 0.00 in0.0 mm 0.01 in0.3 mm
06:54 AM 31.6°F-0.2°C 30.6°F-0.8°C 96% 2.0 mph WNW3.2 kmh WNW 6.0 mph9.7 kmh 29.63 in1003.4 mb 0.01 in0.3 mm 0.00 in0.0 mm 0.01 in0.3 mm
06:53 AM 31.8°F-0.1°C 30.7°F-0.7°C 96% 2.0 mph WNW3.2 kmh WNW 4.9 mph7.9 kmh 29.63 in1003.4 mb 0.01 in0.3 mm 0.00 in0.0 mm 0.01 in0.3 mm
06:52 AM 32.2°F0.1°C 31.1°F-0.5°C 96% 2.0 mph NW3.2 kmh NW 2.9 mph4.7 kmh 29.63 in1003.4 mb 0.01 in0.3 mm 0.00 in0.0 mm 0.01 in0.3 mm
06:51 AM 32.2°F0.1°C 31.1°F-0.5°C 96% 2.9 mph W4.7 kmh W 4.0 mph6.4 kmh 29.63 in1003.4 mb 0.01 in0.3 mm 0.60 in15.2 mm 0.01 in0.3 mm
06:50 AM 32.2°F0.1°C 31.1°F-0.5°C 96% 2.9 mph NW4.7 kmh NW 2.9 mph4.7 kmh 29.63 in1003.4 mb 0.00 in0.0 mm 0.00 in0.0 mm 0.00 in0.0 mm
06:49 AM 32.2°F0.1°C 31.1°F-0.5°C 96% 2.9 mph NW4.7 kmh NW 2.9 mph4.7 kmh 29.63 in1003.4 mb 0.00 in0.0 mm 0.00 in0.0 mm 0.00 in0.0 mm
06:48 AM 32.2°F0.1°C 31.1°F-0.5°C 96% 2.9 mph NW4.7 kmh NW 2.9 mph4.7 kmh 29.63 in1003.4 mb 0.00 in0.0 mm 0.00 in0.0 mm 0.00 in0.0 mm
06:47 AM 32.2°F0.1°C 31.1°F-0.5°C 96% 4.0 mph NNE6.4 kmh NNE 2.0 mph3.2 kmh 29.63 in1003.4 mb 0.00 in0.0 mm 0.00 in0.0 mm 0.00 in0.0 mm
06:46 AM 32.2°F0.1°C 31.1°F-0.5°C 96% 4.0 mph NNE6.4 kmh NNE 6.9 mph11.1 kmh 29.62 in1003.0 mb 0.00 in0.0 mm 0.00 in0.0 mm 0.00 in0.0 mm
06:45 AM 32.2°F0.1°C 31.1°F-0.5°C 96% 4.0 mph NE6.4 kmh NE 6.9 mph11.1 kmh 29.62 in1003.0 mb 0.00 in0.0 mm 0.00 in0.0 mm 0.00 in0.0 mm
06:44 AM 32.2°F0.1°C 31.1°F-0.5°C 96% 2.9 mph NNE4.7 kmh NNE 6.0 mph9.7 kmh 29.63 in1003.4 mb 0.00 in0.0 mm 0.00 in0.0 mm 0.00 in0.0 mm
06:43 AM 32.2°F0.1°C 31.1°F-0.5°C 96% 2.9 mph ENE4.7 kmh ENE 4.9 mph7.9 kmh 29.63 in1003.4 mb 0.00 in0.0 mm 0.00 in0.0 mm 0.00 in0.0 mm
06:42 AM 32.0°F0.0°C 30.9°F-0.6°C 96% 2.9 mph NE4.7 kmh NE 4.9 mph7.9 kmh 29.63 in1003.4 mb 0.00 in0.0 mm 0.00 in0.0 mm 0.00 in0.0 mm
06:41 AM 32.0°F0.0°C 30.9°F-0.6°C 96% 2.0 mph ENE3.2 kmh ENE 4.9 mph7.9 kmh 29.64 in1003.7 mb 0.00 in0.0 mm 0.00 in0.0 mm 0.00 in0.0 mm
06:40 AM 31.8°F-0.1°C 30.7°F-0.7°C 96% 2.0 mph ENE3.2 kmh ENE 8.1 mph13.0 kmh 29.64 in1003.7 mb 0.00 in0.0 mm 0.00 in0.0 mm 0.00 in0.0 mm
06:39 AM 31.8°F-0.1°C 30.7°F-0.7°C 96% 2.0 mph NNE3.2 kmh NNE 8.1 mph13.0 kmh 29.65 in1004.1 mb 0.00 in0.0 mm 0.00 in0.0 mm 0.00 in0.0 mm
06:38 AM 31.8°F-0.1°C 30.7°F-0.7°C 96% 2.0 mph NE3.2 kmh NE 6.0 mph9.7 kmh 29.65 in1004.1 mb 0.00 in0.0 mm 0.00 in0.0 mm 0.00 in0.0 mm
06:37 AM 31.6°F-0.2°C 30.6°F-0.8°C 96% 2.0 mph E3.2 kmh E 4.9 mph7.9 kmh 29.65 in1004.1 mb 0.00 in0.0 mm 0.00 in0.0 mm 0.00 in0.0 mm
06:36 AM 31.6°F-0.2°C 30.6°F-0.8°C 96% 2.0 mph ENE3.2 kmh ENE 2.9 mph4.7 kmh 29.65 in1004.1 mb 0.00 in0.0 mm 0.00 in0.0 mm 0.00 in0.0 mm
06:35 AM 31.6°F-0.2°C 30.6°F-0.8°C 96% 2.0 mph ENE3.2 kmh ENE 4.0 mph6.4 kmh 29.65 in1004.1 mb 0.00 in0.0 mm 0.00 in0.0 mm 0.00 in0.0 mm
06:34 AM 31.6°F-0.2°C 30.6°F-0.8°C 96% 2.0 mph ENE3.2 kmh ENE 4.0 mph6.4 kmh 29.65 in1004.1 mb 0.00 in0.0 mm 0.00 in0.0 mm 0.00 in0.0 mm
06:33 AM 31.6°F-0.2°C 30.6°F-0.8°C 96% 2.0 mph NE3.2 kmh NE 2.0 mph3.2 kmh 29.65 in1004.1 mb 0.00 in0.0 mm 0.00 in0.0 mm 0.00 in0.0 mm
06:32 AM 31.6°F-0.2°C 30.6°F-0.8°C 96% 2.0 mph NE3.2 kmh NE 2.0 mph3.2 kmh 29.65 in1004.1 mb 0.00 in0.0 mm 0.00 in0.0 mm 0.00 in0.0 mm
06:31 AM 31.5°F-0.3°C 30.4°F-0.9°C 96% 2.0 mph NE3.2 kmh NE 2.9 mph4.7 kmh 29.65 in1004.1 mb 0.00 in0.0 mm 0.00 in0.0 mm 0.00 in0.0 mm
06:30 AM 31.5°F-0.3°C 30.4°F-0.9°C 96% 2.0 mph NE3.2 kmh NE 2.9 mph4.7 kmh 29.65 in1004.1 mb 0.00 in0.0 mm 0.00 in0.0 mm 0.00 in0.0 mm
06:29 AM 31.5°F-0.3°C 30.4°F-0.9°C 96% 2.0 mph NE3.2 kmh NE 4.9 mph7.9 kmh 29.65 in1004.1 mb 0.00 in0.0 mm 0.00 in0.0 mm 0.00 in0.0 mm
06:28 AM 31.5°F-0.3°C 30.4°F-0.9°C 96% 2.0 mph N3.2 kmh N 2.9 mph4.7 kmh 29.65 in1004.1 mb 0.00 in0.0 mm 0.00 in0.0 mm 0.00 in0.0 mm
06:27 AM 31.5°F-0.3°C 30.4°F-0.9°C 96% 2.0 mph NNE3.2 kmh NNE 5.0 mph8.0 kmh 29.65 in1004.1 mb 0.00 in0.0 mm 0.00 in0.0 mm 0.00 in0.0 mm
06:26 AM 31.5°F-0.3°C 30.4°F-0.9°C 96% 2.0 mph NNE3.2 kmh NNE 5.0 mph8.0 kmh 29.65 in1004.1 mb 0.00 in0.0 mm 0.00 in0.0 mm 0.00 in0.0 mm
06:25 AM 31.3°F-0.4°C 30.2°F-1.0°C 96% 2.0 mph NE3.2 kmh NE 4.0 mph6.4 kmh 29.65 in1004.1 mb 0.00 in0.0 mm 0.00 in0.0 mm 0.00 in0.0 mm
06:24 AM 31.3°F-0.4°C 30.2°F-1.0°C 96% 2.0 mph NNE3.2 kmh NNE 2.9 mph4.7 kmh 29.65 in1004.1 mb 0.00 in0.0 mm 0.00 in0.0 mm 0.00 in0.0 mm
06:23 AM 31.3°F-0.4°C 30.2°F-1.0°C 96% 2.0 mph NNE3.2 kmh NNE 2.9 mph4.7 kmh 29.65 in1004.1 mb 0.00 in0.0 mm 0.00 in0.0 mm 0.00 in0.0 mm
06:22 AM 31.3°F-0.4°C 30.2°F-1.0°C 96% 2.0 mph N3.2 kmh N 2.0 mph3.2 kmh 29.65 in1004.1 mb 0.00 in0.0 mm 0.00 in0.0 mm 0.00 in0.0 mm
06:21 AM 31.3°F-0.4°C 30.2°F-1.0°C 96% 2.0 mph N3.2 kmh N 2.0 mph3.2 kmh 29.65 in1004.1 mb 0.00 in0.0 mm 0.00 in0.0 mm 0.00 in0.0 mm
06:20 AM 31.3°F-0.4°C 30.2°F-1.0°C 96% 2.0 mph N3.2 kmh N 4.0 mph6.4 kmh 29.65 in1004.1 mb 0.00 in0.0 mm 0.00 in0.0 mm 0.00 in0.0 mm
06:19 AM 31.3°F-0.4°C 30.2°F-1.0°C 96% 2.0 mph NE3.2 kmh NE 2.9 mph4.7 kmh 29.65 in1004.1 mb 0.00 in0.0 mm 0.00 in0.0 mm 0.00 in0.0 mm
06:18 AM 31.1°F-0.5°C 30.0°F-1.1°C 96% 2.0 mph NE3.2 kmh NE 4.0 mph6.4 kmh 29.66 in1004.4 mb 0.00 in0.0 mm 0.00 in0.0 mm 0.00 in0.0 mm
06:17 AM 31.1°F-0.5°C 30.0°F-1.1°C 96% 2.0 mph NE3.2 kmh NE 4.0 mph6.4 kmh 29.66 in1004.4 mb 0.00 in0.0 mm 0.00 in0.0 mm 0.00 in0.0 mm
06:16 AM 31.1°F-0.5°C 30.0°F-1.1°C 96% 2.0 mph ENE3.2 kmh ENE 2.9 mph4.7 kmh 29.66 in1004.4 mb 0.00 in0.0 mm 0.00 in0.0 mm 0.00 in0.0 mm
06:15 AM 30.9°F-0.6°C 29.8°F-1.2°C 96% 2.0 mph ENE3.2 kmh ENE 4.0 mph6.4 kmh 29.66 in1004.4 mb 0.00 in0.0 mm 0.00 in0.0 mm 0.00 in0.0 mm
06:14 AM 30.9°F-0.6°C 29.8°F-1.2°C 96% 2.0 mph NE3.2 kmh NE 4.0 mph6.4 kmh 29.66 in1004.4 mb 0.00 in0.0 mm 0.00 in0.0 mm 0.00 in0.0 mm
06:13 AM 30.9°F-0.6°C 29.8°F-1.2°C 96% 2.0 mph NE3.2 kmh NE 2.9 mph4.7 kmh 29.66 in1004.4 mb 0.00 in0.0 mm 0.00 in0.0 mm 0.00 in0.0 mm
06:12 AM 30.9°F-0.6°C 29.8°F-1.2°C 96% 2.0 mph NNE3.2 kmh NNE 2.9 mph4.7 kmh 29.66 in1004.4 mb 0.00 in0.0 mm 0.00 in0.0 mm 0.00 in0.0 mm
06:11 AM 30.9°F-0.6°C 29.8°F-1.2°C 96% 2.0 mph NE3.2 kmh NE 4.0 mph6.4 kmh 29.66 in1004.4 mb 0.00 in0.0 mm 0.00 in0.0 mm 0.00 in0.0 mm
06:10 AM 30.7°F-0.7°C 29.7°F-1.3°C 96% 2.0 mph E3.2 kmh E 4.0 mph6.4 kmh 29.65 in1004.1 mb 0.00 in0.0 mm 0.00 in0.0 mm 0.00 in0.0 mm
06:09 AM 30.7°F-0.7°C 29.7°F-1.3°C 96% 2.0 mph E3.2 kmh E 4.0 mph6.4 kmh 29.65 in1004.1 mb 0.00 in0.0 mm 0.00 in0.0 mm 0.00 in0.0 mm
06:08 AM 30.7°F-0.7°C 29.7°F-1.3°C 96% 2.0 mph NE3.2 kmh NE 2.9 mph4.7 kmh 29.65 in1004.1 mb 0.00 in0.0 mm 0.00 in0.0 mm 0.00 in0.0 mm
06:07 AM 30.7°F-0.7°C 29.7°F-1.3°C 96% 2.0 mph NE3.2 kmh NE 2.9 mph4.7 kmh 29.65 in1004.1 mb 0.00 in0.0 mm 0.00 in0.0 mm 0.00 in0.0 mm
06:06 AM 30.7°F-0.7°C 29.7°F-1.3°C 96% 2.0 mph NE3.2 kmh NE 4.9 mph7.9 kmh 29.65 in1004.1 mb 0.00 in0.0 mm 0.00 in0.0 mm 0.00 in0.0 mm
06:05 AM 30.6°F-0.8°C 29.5°F-1.4°C 96% 2.0 mph NE3.2 kmh NE 8.1 mph13.0 kmh 29.65 in1004.1 mb 0.00 in0.0 mm 0.00 in0.0 mm 0.00 in0.0 mm
06:04 AM 30.6°F-0.8°C 29.5°F-1.4°C 96% 2.0 mph ENE3.2 kmh ENE 4.0 mph6.4 kmh 29.65 in1004.1 mb 0.00 in0.0 mm 0.00 in0.0 mm 0.00 in0.0 mm
06:03 AM 30.6°F-0.8°C 29.5°F-1.4°C 96% 2.0 mph NNW3.2 kmh NNW 4.0 mph6.4 kmh 29.65 in1004.1 mb 0.00 in0.0 mm 0.00 in0.0 mm 0.00 in0.0 mm
06:02 AM 30.6°F-0.8°C 29.5°F-1.4°C 96% 2.0 mph NE3.2 kmh NE 2.9 mph4.7 kmh 29.65 in1004.1 mb 0.00 in0.0 mm 0.00 in0.0 mm 0.00 in0.0 mm
06:01 AM 30.6°F-0.8°C 29.5°F-1.4°C 96% 2.0 mph ENE3.2 kmh ENE 4.0 mph6.4 kmh 29.66 in1004.4 mb 0.00 in0.0 mm 0.00 in0.0 mm 0.00 in0.0 mm
06:00 AM 30.6°F-0.8°C 29.5°F-1.4°C 96% 2.0 mph NNE3.2 kmh NNE 2.9 mph4.7 kmh 29.66 in1004.4 mb 0.00 in0.0 mm 0.00 in0.0 mm 0.00 in0.0 mm
05:59 AM 30.6°F-0.8°C 29.5°F-1.4°C 96% 2.0 mph NE3.2 kmh NE 4.0 mph6.4 kmh 29.67 in1004.7 mb 0.00 in0.0 mm 0.00 in0.0 mm 0.00 in0.0 mm
05:58 AM 30.6°F-0.8°C 29.5°F-1.4°C 96% 2.0 mph NE3.2 kmh NE 4.0 mph6.4 kmh 29.67 in1004.7 mb 0.00 in0.0 mm 0.00 in0.0 mm 0.00 in0.0 mm
05:57 AM 30.4°F-0.9°C 29.3°F-1.5°C 96% 2.0 mph NE3.2 kmh NE 4.0 mph6.4 kmh 29.67 in1004.7 mb 0.00 in0.0 mm 0.00 in0.0 mm 0.00 in0.0 mm
05:56 AM 30.4°F-0.9°C 29.3°F-1.5°C 96% 2.0 mph NE3.2 kmh NE 4.0 mph6.4 kmh 29.67 in1004.7 mb 0.00 in0.0 mm 0.00 in0.0 mm 0.00 in0.0 mm
05:55 AM 30.4°F-0.9°C 29.3°F-1.5°C 96% 2.0 mph NE3.2 kmh NE 4.9 mph7.9 kmh 29.67 in1004.7 mb 0.00 in0.0 mm 0.00 in0.0 mm 0.00 in0.0 mm
05:54 AM 30.4°F-0.9°C 29.3°F-1.5°C 96% 2.0 mph NE3.2 kmh NE 8.1 mph13.0 kmh 29.67 in1004.7 mb 0.00 in0.0 mm 0.00 in0.0 mm 0.00 in0.0 mm
05:53 AM 30.4°F-0.9°C 29.3°F-1.5°C 96% 2.0 mph NE3.2 kmh NE 4.9 mph7.9 kmh 29.68 in1005.1 mb 0.00 in0.0 mm 0.00 in0.0 mm 0.00 in0.0 mm
05:52 AM 30.4°F-0.9°C 29.3°F-1.5°C 96% 2.0 mph NE3.2 kmh NE 4.9 mph7.9 kmh 29.68 in1005.1 mb 0.00 in0.0 mm 0.00 in0.0 mm 0.00 in0.0 mm
05:51 AM 30.4°F-0.9°C 29.3°F-1.5°C 96% 2.0 mph NNW3.2 kmh NNW 2.9 mph4.7 kmh 29.68 in1005.1 mb 0.00 in0.0 mm 0.00 in0.0 mm 0.00 in0.0 mm
05:50 AM 30.4°F-0.9°C 29.3°F-1.5°C 96% 2.0 mph N3.2 kmh N 2.0 mph3.2 kmh 29.68 in1005.1 mb 0.00 in0.0 mm 0.00 in0.0 mm 0.00 in0.0 mm
05:49 AM 30.4°F-0.9°C 29.3°F-1.5°C 96% 2.0 mph N3.2 kmh N 4.9 mph7.9 kmh 29.68 in1005.1 mb 0.00 in0.0 mm 0.00 in0.0 mm 0.00 in0.0 mm
05:48 AM 30.4°F-0.9°C 29.3°F-1.5°C 96% 2.0 mph NE3.2 kmh NE 2.0 mph3.2 kmh 29.68 in1005.1 mb 0.00 in0.0 mm 0.00 in0.0 mm 0.00 in0.0 mm
05:47 AM 30.2°F-1.0°C 29.1°F-1.6°C 96% 2.0 mph NE3.2 kmh NE 4.0 mph6.4 kmh 29.68 in1005.1 mb 0.00 in0.0 mm 0.00 in0.0 mm 0.00 in0.0 mm
05:46 AM 30.2°F-1.0°C 29.1°F-1.6°C 96% 2.0 mph NE3.2 kmh NE 4.0 mph6.4 kmh 29.68 in1005.1 mb 0.00 in0.0 mm 0.00 in0.0 mm 0.00 in0.0 mm
05:45 AM 30.2°F-1.0°C 29.1°F-1.6°C 96% 2.0 mph NE3.2 kmh NE 4.0 mph6.4 kmh 29.68 in1005.1 mb 0.00 in0.0 mm 0.00 in0.0 mm 0.00 in0.0 mm
05:44 AM 30.2°F-1.0°C 29.1°F-1.6°C 96% 2.0 mph NE3.2 kmh NE 4.0 mph6.4 kmh 29.68 in1005.1 mb 0.00 in0.0 mm 0.00 in0.0 mm 0.00 in0.0 mm
05:43 AM 30.2°F-1.0°C 29.1°F-1.6°C 96% 2.0 mph NE3.2 kmh NE 4.0 mph6.4 kmh 29.68 in1005.1 mb 0.00 in0.0 mm 0.00 in0.0 mm 0.00 in0.0 mm
05:42 AM 30.2°F-1.0°C 29.1°F-1.6°C 96% 2.0 mph N3.2 kmh N 4.9 mph7.9 kmh 29.67 in1004.7 mb 0.00 in0.0 mm 0.00 in0.0 mm 0.00 in0.0 mm
05:41 AM 30.0°F-1.1°C 28.9°F-1.7°C 96% 2.0 mph ENE3.2 kmh ENE 4.9 mph7.9 kmh 29.68 in1005.1 mb 0.00 in0.0 mm 0.00 in0.0 mm 0.00 in0.0 mm
05:40 AM 30.0°F-1.1°C 28.8°F-1.8°C 95% 2.0 mph N3.2 kmh N 4.9 mph7.9 kmh 29.68 in1005.1 mb 0.00 in0.0 mm 0.00 in0.0 mm 0.00 in0.0 mm
05:39 AM 30.0°F-1.1°C 28.9°F-1.7°C 96% 2.0 mph NE3.2 kmh NE 4.9 mph7.9 kmh 29.68 in1005.1 mb 0.00 in0.0 mm 0.00 in0.0 mm 0.00 in0.0 mm
05:38 AM 30.0°F-1.1°C 28.9°F-1.7°C 96% 2.0 mph N3.2 kmh N 6.0 mph9.7 kmh 29.68 in1005.1 mb 0.00 in0.0 mm 0.00 in0.0 mm 0.00 in0.0 mm
05:37 AM 30.0°F-1.1°C 28.9°F-1.7°C 96% 2.0 mph NNE3.2 kmh NNE 2.9 mph4.7 kmh 29.69 in1005.4 mb 0.00 in0.0 mm 0.00 in0.0 mm 0.00 in0.0 mm
05:36 AM 30.0°F-1.1°C 28.9°F-1.7°C 96% 2.9 mph E4.7 kmh E 2.9 mph4.7 kmh 29.69 in1005.4 mb 0.00 in0.0 mm 0.00 in0.0 mm 0.00 in0.0 mm
05:35 AM 30.0°F-1.1°C 28.8°F-1.8°C 95% 2.9 mph E4.7 kmh E 6.0 mph9.7 kmh 29.69 in1005.4 mb 0.00 in0.0 mm 0.00 in0.0 mm 0.00 in0.0 mm
05:34 AM 30.0°F-1.1°C 28.8°F-1.8°C 95% 2.9 mph N4.7 kmh N 4.9 mph7.9 kmh 29.69 in1005.4 mb 0.00 in0.0 mm 0.00 in0.0 mm 0.00 in0.0 mm
05:33 AM 30.0°F-1.1°C 28.8°F-1.8°C 95% 2.9 mph ESE4.7 kmh ESE 2.9 mph4.7 kmh 29.69 in1005.4 mb 0.00 in0.0 mm 0.00 in0.0 mm 0.00 in0.0 mm
05:32 AM 30.0°F-1.1°C 28.8°F-1.8°C 95% 2.9 mph N4.7 kmh N 8.1 mph13.0 kmh 29.70 in1005.8 mb 0.00 in0.0 mm 0.00 in0.0 mm 0.00 in0.0 mm
05:31 AM 30.0°F-1.1°C 28.8°F-1.8°C 95% 2.9 mph N4.7 kmh N 8.1 mph13.0 kmh 29.70 in1005.8 mb 0.00 in0.0 mm 0.00 in0.0 mm 0.00 in0.0 mm
05:30 AM 30.0°F-1.1°C 28.8°F-1.8°C 95% 2.9 mph NE4.7 kmh NE 4.9 mph7.9 kmh 29.70 in1005.8 mb 0.00 in0.0 mm 0.00 in0.0 mm 0.00 in0.0 mm
05:29 AM 30.0°F-1.1°C 28.8°F-1.8°C 95% 2.9 mph NNE4.7 kmh NNE 4.9 mph7.9 kmh 29.70 in1005.8 mb 0.00 in0.0 mm 0.00 in0.0 mm 0.00 in0.0 mm
05:28 AM 30.0°F-1.1°C 28.8°F-1.8°C 95% 2.9 mph ENE4.7 kmh ENE 4.9 mph7.9 kmh 29.71 in1006.1 mb 0.00 in0.0 mm 0.00 in0.0 mm 0.00 in0.0 mm
05:27 AM 30.0°F-1.1°C 28.8°F-1.8°C 95% 2.9 mph N4.7 kmh N 4.9 mph7.9 kmh 29.71 in1006.1 mb 0.00 in0.0 mm 0.00 in0.0 mm 0.00 in0.0 mm
05:26 AM 30.0°F-1.1°C 28.8°F-1.8°C 95% 2.9 mph NE4.7 kmh NE 4.0 mph6.4 kmh 29.72 in1006.4 mb 0.00 in0.0 mm 0.00 in0.0 mm 0.00 in0.0 mm
05:25 AM 30.0°F-1.1°C 28.8°F-1.8°C 95% 2.0 mph NE3.2 kmh NE 4.0 mph6.4 kmh 29.72 in1006.4 mb 0.00 in0.0 mm 0.00 in0.0 mm 0.00 in0.0 mm
05:24 AM 30.0°F-1.1°C 28.8°F-1.8°C 95% 2.0 mph ENE3.2 kmh ENE 4.0 mph6.4 kmh 29.72 in1006.4 mb 0.00 in0.0 mm 0.00 in0.0 mm 0.00 in0.0 mm
05:23 AM 29.8°F-1.2°C 28.6°F-1.9°C 95% 2.9 mph N4.7 kmh N 4.9 mph7.9 kmh 29.72 in1006.4 mb 0.00 in0.0 mm 0.00 in0.0 mm 0.00 in0.0 mm
05:22 AM 30.0°F-1.1°C 28.8°F-1.8°C 95% 2.0 mph NE3.2 kmh NE 4.9 mph7.9 kmh 29.72 in1006.4 mb 0.00 in0.0 mm 0.00 in0.0 mm 0.00 in0.0 mm
05:21 AM 29.8°F-1.2°C 28.6°F-1.9°C 95% 2.0 mph NE3.2 kmh NE 4.0 mph6.4 kmh 29.72 in1006.4 mb 0.00 in0.0 mm 0.00 in0.0 mm 0.00 in0.0 mm
05:20 AM 29.8°F-1.2°C 28.8°F-1.8°C 96% 2.0 mph ENE3.2 kmh ENE 4.0 mph6.4 kmh 29.72 in1006.4 mb 0.00 in0.0 mm 0.00 in0.0 mm 0.00 in0.0 mm
05:19 AM 29.8°F-1.2°C 28.8°F-1.8°C 96% 2.0 mph NE3.2 kmh NE 4.0 mph6.4 kmh 29.72 in1006.4 mb 0.00 in0.0 mm 0.00 in0.0 mm 0.00 in0.0 mm
05:18 AM 29.8°F-1.2°C 28.8°F-1.8°C 96% 2.0 mph E3.2 kmh E 4.0 mph6.4 kmh 29.72 in1006.4 mb 0.00 in0.0 mm 0.00 in0.0 mm 0.00 in0.0 mm
05:17 AM 29.8°F-1.2°C 28.8°F-1.8°C 96% 2.0 mph ENE3.2 kmh ENE 4.9 mph7.9 kmh 29.72 in1006.4 mb 0.00 in0.0 mm 0.00 in0.0 mm 0.00 in0.0 mm
05:16 AM 29.8°F-1.2°C 28.8°F-1.8°C 96% 2.0 mph ENE3.2 kmh ENE 4.0 mph6.4 kmh 29.72 in1006.4 mb 0.00 in0.0 mm 0.00 in0.0 mm 0.00 in0.0 mm
05:15 AM 29.8°F-1.2°C 28.6°F-1.9°C 95% 2.0 mph E3.2 kmh E 4.0 mph6.4 kmh 29.72 in1006.4 mb 0.00 in0.0 mm 0.00 in0.0 mm 0.00 in0.0 mm
05:14 AM 29.8°F-1.2°C 28.6°F-1.9°C 95% 2.0 mph E3.2 kmh E 4.0 mph6.4 kmh 29.72 in1006.4 mb 0.00 in0.0 mm 0.00 in0.0 mm 0.00 in0.0 mm
05:13 AM 29.8°F-1.2°C 28.6°F-1.9°C 95% 2.0 mph E3.2 kmh E 4.9 mph7.9 kmh 29.72 in1006.4 mb 0.00 in0.0 mm 0.00 in0.0 mm 0.00 in0.0 mm
05:12 AM 29.8°F-1.2°C 28.6°F-1.9°C 95% 2.0 mph NE3.2 kmh NE 2.9 mph4.7 kmh 29.72 in1006.4 mb 0.00 in0.0 mm 0.00 in0.0 mm 0.00 in0.0 mm
05:11 AM 29.8°F-1.2°C 28.6°F-1.9°C 95% 2.0 mph NE3.2 kmh NE 2.9 mph4.7 kmh 29.72 in1006.4 mb 0.00 in0.0 mm 0.00 in0.0 mm 0.00 in0.0 mm
05:10 AM 29.8°F-1.2°C 28.6°F-1.9°C 95% 2.0 mph NNE3.2 kmh NNE 2.9 mph4.7 kmh 29.72 in1006.4 mb 0.00 in0.0 mm 0.00 in0.0 mm 0.00 in0.0 mm
05:09 AM 29.8°F-1.2°C 28.6°F-1.9°C 95% 2.0 mph N3.2 kmh N 2.9 mph4.7 kmh 29.72 in1006.4 mb 0.00 in0.0 mm 0.00 in0.0 mm 0.00 in0.0 mm
05:08 AM 29.8°F-1.2°C 28.6°F-1.9°C 95% 2.0 mph NNW3.2 kmh NNW 4.0 mph6.4 kmh 29.72 in1006.4 mb 0.00 in0.0 mm 0.00 in0.0 mm 0.00 in0.0 mm
05:07 AM 29.8°F-1.2°C 28.6°F-1.9°C 95% 2.0 mph NNE3.2 kmh NNE 6.9 mph11.1 kmh 29.72 in1006.4 mb 0.00 in0.0 mm 0.00 in0.0 mm 0.00 in0.0 mm
05:06 AM 29.8°F-1.2°C 28.6°F-1.9°C 95% 2.0 mph N3.2 kmh N 4.9 mph7.9 kmh 29.72 in1006.4 mb 0.00 in0.0 mm 0.00 in0.0 mm 0.00 in0.0 mm
05:05 AM 29.8°F-1.2°C 28.6°F-1.9°C 95% 2.0 mph NE3.2 kmh NE 4.0 mph6.4 kmh 29.72 in1006.4 mb 0.00 in0.0 mm 0.00 in0.0 mm 0.00 in0.0 mm
05:04 AM 29.8°F-1.2°C 28.6°F-1.9°C 95% 2.0 mph NE3.2 kmh NE 2.9 mph4.7 kmh 29.72 in1006.4 mb 0.00 in0.0 mm 0.00 in0.0 mm 0.00 in0.0 mm
05:03 AM 29.8°F-1.2°C 28.6°F-1.9°C 95% 2.9 mph NW4.7 kmh NW 2.9 mph4.7 kmh 29.72 in1006.4 mb 0.00 in0.0 mm 0.00 in0.0 mm 0.00 in0.0 mm
05:02 AM 29.8°F-1.2°C 28.6°F-1.9°C 95% 2.9 mph NE4.7 kmh NE 4.9 mph7.9 kmh 29.71 in1006.1 mb 0.00 in0.0 mm 0.00 in0.0 mm 0.00 in0.0 mm
05:01 AM 29.8°F-1.2°C 28.6°F-1.9°C 95% 2.9 mph N4.7 kmh N 4.9 mph7.9 kmh 29.71 in1006.1 mb 0.00 in0.0 mm 0.00 in0.0 mm 0.00 in0.0 mm
05:00 AM 29.8°F-1.2°C 28.6°F-1.9°C 95% 2.9 mph N4.7 kmh N 4.0 mph6.4 kmh 29.71 in1006.1 mb 0.00 in0.0 mm 0.00 in0.0 mm 0.00 in0.0 mm
04:59 AM 29.8°F-1.2°C 28.6°F-1.9°C 95% 2.9 mph NE4.7 kmh NE 4.0 mph6.4 kmh 29.71 in1006.1 mb 0.00 in0.0 mm 0.00 in0.0 mm 0.00 in0.0 mm
04:58 AM 29.8°F-1.2°C 28.6°F-1.9°C 95% 2.9 mph NNE4.7 kmh NNE 4.0 mph6.4 kmh 29.71 in1006.1 mb 0.00 in0.0 mm 0.00 in0.0 mm 0.00 in0.0 mm
04:57 AM 29.8°F-1.2°C 28.6°F-1.9°C 95% 2.9 mph N4.7 kmh N 8.1 mph13.0 kmh 29.72 in1006.4 mb 0.00 in0.0 mm 0.00 in0.0 mm 0.00 in0.0 mm
04:56 AM 29.8°F-1.2°C 28.6°F-1.9°C 95% 2.9 mph ESE4.7 kmh ESE 8.1 mph13.0 kmh 29.72 in1006.4 mb 0.00 in0.0 mm 0.00 in0.0 mm 0.00 in0.0 mm
04:55 AM 29.8°F-1.2°C 28.6°F-1.9°C 95% 2.9 mph ENE4.7 kmh ENE 11.0 mph17.7 kmh 29.72 in1006.4 mb 0.00 in0.0 mm 0.00 in0.0 mm 0.00 in0.0 mm
04:54 AM 29.8°F-1.2°C 28.6°F-1.9°C 95% 2.9 mph NNE4.7 kmh NNE 8.9 mph14.3 kmh 29.72 in1006.4 mb 0.00 in0.0 mm 0.00 in0.0 mm 0.00 in0.0 mm
04:53 AM 29.8°F-1.2°C 28.6°F-1.9°C 95% 2.9 mph ENE4.7 kmh ENE 8.9 mph14.3 kmh 29.72 in1006.4 mb 0.00 in0.0 mm 0.00 in0.0 mm 0.00 in0.0 mm
04:52 AM 29.8°F-1.2°C 28.6°F-1.9°C 95% 2.9 mph S4.7 kmh S 4.9 mph7.9 kmh 29.72 in1006.4 mb 0.00 in0.0 mm 0.00 in0.0 mm 0.00 in0.0 mm
04:51 AM 29.8°F-1.2°C 28.6°F-1.9°C 95% 2.9 mph SSE4.7 kmh SSE 2.9 mph4.7 kmh 29.72 in1006.4 mb 0.00 in0.0 mm 0.00 in0.0 mm 0.00 in0.0 mm
04:50 AM 29.8°F-1.2°C 28.6°F-1.9°C 95% 2.9 mph NE4.7 kmh NE 2.9 mph4.7 kmh 29.72 in1006.4 mb 0.00 in0.0 mm 0.00 in0.0 mm 0.00 in0.0 mm
04:49 AM 29.8°F-1.2°C 28.6°F-1.9°C 95% 2.9 mph ESE4.7 kmh ESE 8.9 mph14.3 kmh 29.72 in1006.4 mb 0.00 in0.0 mm 0.00 in0.0 mm 0.00 in0.0 mm
04:47 AM 29.8°F-1.2°C 28.6°F-1.9°C 95% 2.9 mph NE4.7 kmh NE 6.0 mph9.7 kmh 29.72 in1006.4 mb 0.00 in0.0 mm 0.00 in0.0 mm 0.00 in0.0 mm
04:46 AM 29.8°F-1.2°C 28.6°F-1.9°C 95% 2.9 mph E4.7 kmh E 6.0 mph9.7 kmh 29.72 in1006.4 mb 0.00 in0.0 mm 0.00 in0.0 mm 0.00 in0.0 mm
04:45 AM 29.8°F-1.2°C 28.6°F-1.9°C 95% 2.9 mph E4.7 kmh E 6.0 mph9.7 kmh 29.72 in1006.4 mb 0.00 in0.0 mm 0.00 in0.0 mm 0.00 in0.0 mm
04:44 AM 29.8°F-1.2°C 28.6°F-1.9°C 95% 2.9 mph NNE4.7 kmh NNE 4.0 mph6.4 kmh 29.72 in1006.4 mb 0.00 in0.0 mm 0.00 in0.0 mm 0.00 in0.0 mm
04:43 AM 29.8°F-1.2°C 28.6°F-1.9°C 95% 2.9 mph ENE4.7 kmh ENE 6.0 mph9.7 kmh 29.72 in1006.4 mb 0.00 in0.0 mm 0.00 in0.0 mm 0.00 in0.0 mm
04:42 AM 29.8°F-1.2°C 28.6°F-1.9°C 95% 2.0 mph NE3.2 kmh NE 4.9 mph7.9 kmh 29.72 in1006.4 mb 0.00 in0.0 mm 0.00 in0.0 mm 0.00 in0.0 mm
04:41 AM 29.8°F-1.2°C 28.6°F-1.9°C 95% 2.0 mph NNE3.2 kmh NNE 6.0 mph9.7 kmh 29.72 in1006.4 mb 0.00 in0.0 mm 0.00 in0.0 mm 0.00 in0.0 mm
04:40 AM 29.8°F-1.2°C 28.6°F-1.9°C 95% 2.0 mph ENE3.2 kmh ENE 2.9 mph4.7 kmh 29.73 in1006.8 mb 0.00 in0.0 mm 0.00 in0.0 mm 0.00 in0.0 mm
04:39 AM 29.8°F-1.2°C 28.6°F-1.9°C 95% 2.9 mph WNW4.7 kmh WNW 4.0 mph6.4 kmh 29.74 in1007.1 mb 0.00 in0.0 mm 0.00 in0.0 mm 0.00 in0.0 mm
04:38 AM 29.8°F-1.2°C 28.6°F-1.9°C 95% 2.9 mph E4.7 kmh E 6.0 mph9.7 kmh 29.75 in1007.5 mb 0.00 in0.0 mm 0.00 in0.0 mm 0.00 in0.0 mm
04:37 AM 29.8°F-1.2°C 28.6°F-1.9°C 95% 2.9 mph E4.7 kmh E 10.1 mph16.3 kmh 29.75 in1007.5 mb 0.00 in0.0 mm 0.00 in0.0 mm 0.00 in0.0 mm
04:36 AM 29.8°F-1.2°C 28.6°F-1.9°C 95% 2.9 mph ENE4.7 kmh ENE 4.0 mph6.4 kmh 29.75 in1007.5 mb 0.00 in0.0 mm 0.00 in0.0 mm 0.00 in0.0 mm
04:35 AM 29.8°F-1.2°C 28.6°F-1.9°C 95% 2.9 mph N4.7 kmh N 8.1 mph13.0 kmh 29.75 in1007.5 mb 0.00 in0.0 mm 0.00 in0.0 mm 0.00 in0.0 mm
04:34 AM 29.8°F-1.2°C 28.6°F-1.9°C 95% 2.9 mph E4.7 kmh E 8.1 mph13.0 kmh 29.75 in1007.5 mb 0.00 in0.0 mm 0.00 in0.0 mm 0.00 in0.0 mm
04:33 AM 29.8°F-1.2°C 28.6°F-1.9°C 95% 2.9 mph NE4.7 kmh NE 4.0 mph6.4 kmh 29.75 in1007.5 mb 0.00 in0.0 mm 0.00 in0.0 mm 0.00 in0.0 mm
04:32 AM 29.8°F-1.2°C 28.6°F-1.9°C 95% 2.9 mph NE4.7 kmh NE 4.0 mph6.4 kmh 29.75 in1007.5 mb 0.00 in0.0 mm 0.00 in0.0 mm 0.00 in0.0 mm
04:31 AM 29.8°F-1.2°C 28.6°F-1.9°C 95% 2.9 mph E4.7 kmh E 4.9 mph7.9 kmh 29.76 in1007.8 mb 0.00 in0.0 mm 0.00 in0.0 mm 0.00 in0.0 mm
04:30 AM 29.8°F-1.2°C 28.6°F-1.9°C 95% 2.9 mph NE4.7 kmh NE 4.9 mph7.9 kmh 29.76 in1007.8 mb 0.00 in0.0 mm 0.00 in0.0 mm 0.00 in0.0 mm
04:29 AM 29.8°F-1.2°C 28.6°F-1.9°C 95% 2.9 mph E4.7 kmh E 4.9 mph7.9 kmh 29.77 in1008.1 mb 0.00 in0.0 mm 0.00 in0.0 mm 0.00 in0.0 mm
04:28 AM 29.8°F-1.2°C 28.6°F-1.9°C 95% 2.9 mph N4.7 kmh N 4.0 mph6.4 kmh 29.77 in1008.1 mb 0.00 in0.0 mm 0.00 in0.0 mm 0.00 in0.0 mm
04:27 AM 29.8°F-1.2°C 28.6°F-1.9°C 95% 2.9 mph E4.7 kmh E 2.9 mph4.7 kmh 29.77 in1008.1 mb 0.00 in0.0 mm 0.00 in0.0 mm 0.00 in0.0 mm
04:26 AM 29.8°F-1.2°C 28.6°F-1.9°C 95% 2.0 mph ESE3.2 kmh ESE 4.0 mph6.4 kmh 29.77 in1008.1 mb 0.00 in0.0 mm 0.00 in0.0 mm 0.00 in0.0 mm
04:25 AM 29.8°F-1.2°C 28.6°F-1.9°C 95% 2.0 mph NE3.2 kmh NE 6.0 mph9.7 kmh 29.77 in1008.1 mb 0.00 in0.0 mm 0.00 in0.0 mm 0.00 in0.0 mm
04:24 AM 29.8°F-1.2°C 28.6°F-1.9°C 95% 2.0 mph NE3.2 kmh NE 6.0 mph9.7 kmh 29.78 in1008.5 mb 0.00 in0.0 mm 0.00 in0.0 mm 0.00 in0.0 mm
04:23 AM 29.8°F-1.2°C 28.6°F-1.9°C 95% 2.0 mph NE3.2 kmh NE 6.9 mph11.1 kmh 29.78 in1008.5 mb 0.00 in0.0 mm 0.00 in0.0 mm 0.00 in0.0 mm
04:22 AM 29.8°F-1.2°C 28.6°F-1.9°C 95% 2.0 mph NE3.2 kmh NE 6.9 mph11.1 kmh 29.78 in1008.5 mb 0.00 in0.0 mm 0.00 in0.0 mm 0.00 in0.0 mm
04:21 AM 29.8°F-1.2°C 28.6°F-1.9°C 95% 2.0 mph NNE3.2 kmh NNE 2.9 mph4.7 kmh 29.78 in1008.5 mb 0.00 in0.0 mm 0.00 in0.0 mm 0.00 in0.0 mm
04:20 AM 29.8°F-1.2°C 28.6°F-1.9°C 95% 2.0 mph NNE3.2 kmh NNE 6.9 mph11.1 kmh 29.79 in1008.8 mb 0.00 in0.0 mm 0.00 in0.0 mm 0.00 in0.0 mm
04:19 AM 29.8°F-1.2°C 28.6°F-1.9°C 95% 2.0 mph NE3.2 kmh NE 4.0 mph6.4 kmh 29.78 in1008.5 mb 0.00 in0.0 mm 0.00 in0.0 mm 0.00 in0.0 mm
04:18 AM 29.8°F-1.2°C 28.6°F-1.9°C 95% 2.0 mph N3.2 kmh N 4.0 mph6.4 kmh 29.79 in1008.8 mb 0.00 in0.0 mm 0.00 in0.0 mm 0.00 in0.0 mm
04:17 AM 29.8°F-1.2°C 28.6°F-1.9°C 95% 2.0 mph WSW3.2 kmh WSW 4.0 mph6.4 kmh 29.79 in1008.8 mb 0.00 in0.0 mm 0.00 in0.0 mm 0.00 in0.0 mm
04:16 AM 29.8°F-1.2°C 28.6°F-1.9°C 95% 2.0 mph SE3.2 kmh SE 2.9 mph4.7 kmh 29.79 in1008.8 mb 0.00 in0.0 mm 0.00 in0.0 mm 0.00 in0.0 mm
04:15 AM 29.8°F-1.2°C 28.6°F-1.9°C 95% 2.0 mph SE3.2 kmh SE 4.0 mph6.4 kmh 29.79 in1008.8 mb 0.00 in0.0 mm 0.00 in0.0 mm 0.00 in0.0 mm
04:14 AM 29.8°F-1.2°C 28.6°F-1.9°C 95% 2.0 mph NE3.2 kmh NE 2.9 mph4.7 kmh 29.79 in1008.8 mb 0.00 in0.0 mm 0.00 in0.0 mm 0.00 in0.0 mm
04:13 AM 29.8°F-1.2°C 28.6°F-1.9°C 95% 2.9 mph E4.7 kmh E 2.9 mph4.7 kmh 29.79 in1008.8 mb 0.00 in0.0 mm 0.00 in0.0 mm 0.00 in0.0 mm
04:12 AM 29.8°F-1.2°C 28.6°F-1.9°C 95% 2.9 mph NNE4.7 kmh NNE 4.0 mph6.4 kmh 29.80 in1009.1 mb 0.00 in0.0 mm 0.00 in0.0 mm 0.00 in0.0 mm
04:11 AM 29.8°F-1.2°C 28.6°F-1.9°C 95% 2.9 mph NNE4.7 kmh NNE 6.0 mph9.7 kmh 29.80 in1009.1 mb 0.00 in0.0 mm 0.00 in0.0 mm 0.00 in0.0 mm
04:10 AM 29.8°F-1.2°C 28.6°F-1.9°C 95% 2.9 mph E4.7 kmh E 6.0 mph9.7 kmh 29.80 in1009.1 mb 0.00 in0.0 mm 0.00 in0.0 mm 0.00 in0.0 mm
04:09 AM 29.8°F-1.2°C 28.6°F-1.9°C 95% 2.9 mph N4.7 kmh N 2.9 mph4.7 kmh 29.80 in1009.1 mb 0.00 in0.0 mm 0.00 in0.0 mm 0.00 in0.0 mm
04:08 AM 29.8°F-1.2°C 28.6°F-1.9°C 95% 2.9 mph NNE4.7 kmh NNE 2.9 mph4.7 kmh 29.80 in1009.1 mb 0.00 in0.0 mm 0.00 in0.0 mm 0.00 in0.0 mm
04:07 AM 29.8°F-1.2°C 28.6°F-1.9°C 95% 2.9 mph NNE4.7 kmh NNE 6.9 mph11.1 kmh 29.80 in1009.1 mb 0.00 in0.0 mm 0.00 in0.0 mm 0.00 in0.0 mm
04:06 AM 29.8°F-1.2°C 28.6°F-1.9°C 95% 2.9 mph NE4.7 kmh NE 2.9 mph4.7 kmh 29.81 in1009.5 mb 0.00 in0.0 mm 0.00 in0.0 mm 0.00 in0.0 mm
04:05 AM 29.8°F-1.2°C 28.6°F-1.9°C 95% 2.9 mph N4.7 kmh N 4.0 mph6.4 kmh 29.81 in1009.5 mb 0.00 in0.0 mm 0.00 in0.0 mm 0.00 in0.0 mm
04:04 AM 29.7°F-1.3°C 28.4°F-2.0°C 95% 2.9 mph NE4.7 kmh NE 4.0 mph6.4 kmh 29.81 in1009.5 mb 0.00 in0.0 mm 0.00 in0.0 mm 0.00 in0.0 mm
04:03 AM 29.7°F-1.3°C 28.4°F-2.0°C 95% 2.9 mph E4.7 kmh E 4.0 mph6.4 kmh 29.81 in1009.5 mb 0.00 in0.0 mm 0.00 in0.0 mm 0.00 in0.0 mm
04:02 AM 29.7°F-1.3°C 28.4°F-2.0°C 95% 2.9 mph E4.7 kmh E 4.0 mph6.4 kmh 29.81 in1009.5 mb 0.00 in0.0 mm 0.00 in0.0 mm 0.00 in0.0 mm
04:01 AM 29.8°F-1.2°C 28.6°F-1.9°C 95% 2.9 mph ENE4.7 kmh ENE 4.9 mph7.9 kmh 29.81 in1009.5 mb 0.00 in0.0 mm 0.00 in0.0 mm 0.00 in0.0 mm
04:00 AM 29.7°F-1.3°C 28.4°F-2.0°C 95% 2.9 mph NE4.7 kmh NE 4.9 mph7.9 kmh 29.81 in1009.5 mb 0.00 in0.0 mm 0.00 in0.0 mm 0.00 in0.0 mm
03:59 AM 29.7°F-1.3°C 28.4°F-2.0°C 95% 2.9 mph NNE4.7 kmh NNE 8.1 mph13.0 kmh 29.81 in1009.5 mb 0.00 in0.0 mm 0.00 in0.0 mm 0.00 in0.0 mm
03:58 AM 29.7°F-1.3°C 28.4°F-2.0°C 95% 2.9 mph NE4.7 kmh NE 4.9 mph7.9 kmh 29.82 in1009.8 mb 0.00 in0.0 mm 0.00 in0.0 mm 0.00 in0.0 mm
03:57 AM 29.7°F-1.3°C 28.4°F-2.0°C 95% 2.0 mph NNE3.2 kmh NNE 4.0 mph6.4 kmh 29.82 in1009.8 mb 0.00 in0.0 mm 0.00 in0.0 mm 0.00 in0.0 mm
03:56 AM 29.7°F-1.3°C 28.4°F-2.0°C 95% 2.0 mph N3.2 kmh N 6.0 mph9.7 kmh 29.82 in1009.8 mb 0.00 in0.0 mm 0.00 in0.0 mm 0.00 in0.0 mm
03:55 AM 29.7°F-1.3°C 28.4°F-2.0°C 95% 2.0 mph E3.2 kmh E 6.0 mph9.7 kmh 29.83 in1010.2 mb 0.00 in0.0 mm 0.00 in0.0 mm 0.00 in0.0 mm
03:54 AM 29.7°F-1.3°C 28.4°F-2.0°C 95% 2.0 mph N3.2 kmh N 4.9 mph7.9 kmh 29.82 in1009.8 mb 0.00 in0.0 mm 0.00 in0.0 mm 0.00 in0.0 mm
03:53 AM 29.7°F-1.3°C 28.4°F-2.0°C 95% 2.0 mph E3.2 kmh E 4.9 mph7.9 kmh 29.82 in1009.8 mb 0.00 in0.0 mm 0.00 in0.0 mm 0.00 in0.0 mm
03:52 AM 29.7°F-1.3°C 28.4°F-2.0°C 95% 2.0 mph SE3.2 kmh SE 4.0 mph6.4 kmh 29.83 in1010.2 mb 0.00 in0.0 mm 0.00 in0.0 mm 0.00 in0.0 mm
03:51 AM 29.7°F-1.3°C 28.4°F-2.0°C 95% 2.0 mph NNE3.2 kmh NNE 6.0 mph9.7 kmh 29.83 in1010.2 mb 0.00 in0.0 mm 0.00 in0.0 mm 0.00 in0.0 mm
03:50 AM 29.7°F-1.3°C 28.4°F-2.0°C 95% 2.0 mph NE3.2 kmh NE 6.0 mph9.7 kmh 29.83 in1010.2 mb 0.00 in0.0 mm 0.00 in0.0 mm 0.00 in0.0 mm
03:49 AM 29.7°F-1.3°C 28.4°F-2.0°C 95% 2.0 mph N3.2 kmh N 4.0 mph6.4 kmh 29.83 in1010.2 mb 0.00 in0.0 mm 0.00 in0.0 mm 0.00 in0.0 mm
03:48 AM 29.7°F-1.3°C 28.4°F-2.0°C 95% 2.0 mph SE3.2 kmh SE 2.0 mph3.2 kmh 29.83 in1010.2 mb 0.00 in0.0 mm 0.00 in0.0 mm 0.00 in0.0 mm
03:47 AM 29.7°F-1.3°C 28.4°F-2.0°C 95% 2.0 mph N3.2 kmh N 4.0 mph6.4 kmh 29.83 in1010.2 mb 0.00 in0.0 mm 0.00 in0.0 mm 0.00 in0.0 mm
03:46 AM 29.7°F-1.3°C 28.4°F-2.0°C 95% 2.0 mph ENE3.2 kmh ENE 6.9 mph11.1 kmh 29.83 in1010.2 mb 0.00 in0.0 mm 0.00 in0.0 mm 0.00 in0.0 mm
03:45 AM 29.7°F-1.3°C 28.4°F-2.0°C 95% 2.0 mph NE3.2 kmh NE 6.9 mph11.1 kmh 29.83 in1010.2 mb 0.00 in0.0 mm 0.00 in0.0 mm 0.00 in0.0 mm
03:44 AM 29.7°F-1.3°C 28.4°F-2.0°C 95% 2.0 mph NE3.2 kmh NE 6.0 mph9.7 kmh 29.83 in1010.2 mb 0.00 in0.0 mm 0.00 in0.0 mm 0.00 in0.0 mm
03:43 AM 29.7°F-1.3°C 28.4°F-2.0°C 95% 2.0 mph NNW3.2 kmh NNW 6.0 mph9.7 kmh 29.83 in1010.2 mb 0.00 in0.0 mm 0.00 in0.0 mm 0.00 in0.0 mm
03:42 AM 29.7°F-1.3°C 28.4°F-2.0°C 95% 2.0 mph NE3.2 kmh NE 2.0 mph3.2 kmh 29.83 in1010.2 mb 0.00 in0.0 mm 0.00 in0.0 mm 0.00 in0.0 mm
03:41 AM 29.7°F-1.3°C 28.4°F-2.0°C 95% 2.9 mph NE4.7 kmh NE 6.9 mph11.1 kmh 29.83 in1010.2 mb 0.00 in0.0 mm 0.00 in0.0 mm 0.00 in0.0 mm
03:40 AM 29.7°F-1.3°C 28.4°F-2.0°C 95% 2.9 mph ESE4.7 kmh ESE 4.0 mph6.4 kmh 29.83 in1010.2 mb 0.00 in0.0 mm 0.00 in0.0 mm 0.00 in0.0 mm
03:39 AM 29.7°F-1.3°C 28.4°F-2.0°C 95% 2.0 mph N3.2 kmh N 2.9 mph4.7 kmh 29.84 in1010.5 mb 0.00 in0.0 mm 0.00 in0.0 mm 0.00 in0.0 mm
03:38 AM 29.7°F-1.3°C 28.4°F-2.0°C 95% 2.0 mph S3.2 kmh S 8.9 mph14.3 kmh 29.84 in1010.5 mb 0.00 in0.0 mm 0.00 in0.0 mm 0.00 in0.0 mm
03:37 AM 29.7°F-1.3°C 28.4°F-2.0°C 95% 2.0 mph ESE3.2 kmh ESE 6.9 mph11.1 kmh 29.84 in1010.5 mb 0.00 in0.0 mm 0.00 in0.0 mm 0.00 in0.0 mm
03:36 AM 29.7°F-1.3°C 28.4°F-2.0°C 95% 2.0 mph E3.2 kmh E 2.9 mph4.7 kmh 29.84 in1010.5 mb 0.00 in0.0 mm 0.00 in0.0 mm 0.00 in0.0 mm
03:35 AM 29.7°F-1.3°C 28.4°F-2.0°C 95% 2.9 mph NE4.7 kmh NE 6.9 mph11.1 kmh 29.84 in1010.5 mb 0.00 in0.0 mm 0.00 in0.0 mm 0.00 in0.0 mm
03:34 AM 29.7°F-1.3°C 28.4°F-2.0°C 95% 2.9 mph E4.7 kmh E 2.9 mph4.7 kmh 29.84 in1010.5 mb 0.00 in0.0 mm 0.00 in0.0 mm 0.00 in0.0 mm
03:33 AM 29.7°F-1.3°C 28.4°F-2.0°C 95% 2.9 mph NE4.7 kmh NE 8.1 mph13.0 kmh 29.84 in1010.5 mb 0.00 in0.0 mm 0.00 in0.0 mm 0.00 in0.0 mm
03:32 AM 29.7°F-1.3°C 28.4°F-2.0°C 95% 2.0 mph NE3.2 kmh NE 8.1 mph13.0 kmh 29.84 in1010.5 mb 0.00 in0.0 mm 0.00 in0.0 mm 0.00 in0.0 mm
03:31 AM 29.7°F-1.3°C 28.4°F-2.0°C 95% 2.0 mph ENE3.2 kmh ENE 6.9 mph11.1 kmh 29.84 in1010.5 mb 0.00 in0.0 mm 0.00 in0.0 mm 0.00 in0.0 mm
03:30 AM 29.7°F-1.3°C 28.4°F-2.0°C 95% 2.0 mph N3.2 kmh N 2.0 mph3.2 kmh 29.85 in1010.8 mb 0.00 in0.0 mm 0.00 in0.0 mm 0.00 in0.0 mm
03:29 AM 29.7°F-1.3°C 28.4°F-2.0°C 95% 2.0 mph N3.2 kmh N 4.0 mph6.4 kmh 29.85 in1010.8 mb 0.00 in0.0 mm 0.00 in0.0 mm 0.00 in0.0 mm
03:28 AM 29.7°F-1.3°C 28.4°F-2.0°C 95% 2.0 mph NNE3.2 kmh NNE 2.9 mph4.7 kmh 29.85 in1010.8 mb 0.00 in0.0 mm 0.00 in0.0 mm 0.00 in0.0 mm
03:27 AM 29.7°F-1.3°C 28.4°F-2.0°C 95% 2.0 mph NE3.2 kmh NE 4.0 mph6.4 kmh 29.85 in1010.8 mb 0.00 in0.0 mm 0.00 in0.0 mm 0.00 in0.0 mm
03:26 AM 29.7°F-1.3°C 28.4°F-2.0°C 95% 2.0 mph SE3.2 kmh SE 6.0 mph9.7 kmh 29.85 in1010.8 mb 0.00 in0.0 mm 0.00 in0.0 mm 0.00 in0.0 mm
03:25 AM 29.7°F-1.3°C 28.4°F-2.0°C 95% 2.0 mph NE3.2 kmh NE 8.9 mph14.3 kmh 29.85 in1010.8 mb 0.00 in0.0 mm 0.00 in0.0 mm 0.00 in0.0 mm
03:24 AM 29.7°F-1.3°C 28.4°F-2.0°C 95% 2.9 mph NE4.7 kmh NE 8.9 mph14.3 kmh 29.85 in1010.8 mb 0.00 in0.0 mm 0.00 in0.0 mm 0.00 in0.0 mm
03:23 AM 29.7°F-1.3°C 28.4°F-2.0°C 95% 2.9 mph NE4.7 kmh NE 8.9 mph14.3 kmh 29.85 in1010.8 mb 0.00 in0.0 mm 0.00 in0.0 mm 0.00 in0.0 mm
03:22 AM 29.7°F-1.3°C 28.4°F-2.0°C 95% 2.9 mph SE4.7 kmh SE 2.9 mph4.7 kmh 29.85 in1010.8 mb 0.00 in0.0 mm 0.00 in0.0 mm 0.00 in0.0 mm
03:21 AM 29.7°F-1.3°C 28.4°F-2.0°C 95% 2.9 mph NNW4.7 kmh NNW 4.9 mph7.9 kmh 29.85 in1010.8 mb 0.00 in0.0 mm 0.00 in0.0 mm 0.00 in0.0 mm
03:20 AM 29.7°F-1.3°C 28.4°F-2.0°C 95% 2.9 mph NE4.7 kmh NE 4.9 mph7.9 kmh 29.85 in1010.8 mb 0.00 in0.0 mm 0.00 in0.0 mm 0.00 in0.0 mm
03:19 AM 29.7°F-1.3°C 28.4°F-2.0°C 95% 2.9 mph ENE4.7 kmh ENE 4.0 mph6.4 kmh 29.85 in1010.8 mb 0.00 in0.0 mm 0.00 in0.0 mm 0.00 in0.0 mm
03:18 AM 29.7°F-1.3°C 28.4°F-2.0°C 95% 2.9 mph N4.7 kmh N 10.1 mph16.3 kmh 29.85 in1010.8 mb 0.00 in0.0 mm 0.00 in0.0 mm 0.00 in0.0 mm
03:17 AM 29.7°F-1.3°C 28.4°F-2.0°C 95% 2.9 mph N4.7 kmh N 10.1 mph16.3 kmh 29.86 in1011.2 mb 0.00 in0.0 mm 0.00 in0.0 mm 0.00 in0.0 mm
03:16 AM 29.7°F-1.3°C 28.4°F-2.0°C 95% 2.9 mph SW4.7 kmh SW 6.9 mph11.1 kmh 29.86 in1011.2 mb 0.00 in0.0 mm 0.00 in0.0 mm 0.00 in0.0 mm
03:15 AM 29.7°F-1.3°C 28.4°F-2.0°C 95% 2.9 mph SE4.7 kmh SE 6.9 mph11.1 kmh 29.86 in1011.2 mb 0.00 in0.0 mm 0.00 in0.0 mm 0.00 in0.0 mm
03:14 AM 29.7°F-1.3°C 28.4°F-2.0°C 95% 2.9 mph SE4.7 kmh SE 6.0 mph9.7 kmh 29.86 in1011.2 mb 0.00 in0.0 mm 0.00 in0.0 mm 0.00 in0.0 mm
03:13 AM 29.7°F-1.3°C 28.4°F-2.0°C 95% 2.0 mph NE3.2 kmh NE 6.9 mph11.1 kmh 29.87 in1011.5 mb 0.00 in0.0 mm 0.00 in0.0 mm 0.00 in0.0 mm
03:12 AM 29.7°F-1.3°C 28.4°F-2.0°C 95% 2.0 mph E3.2 kmh E 4.9 mph7.9 kmh 29.87 in1011.5 mb 0.00 in0.0 mm 0.00 in0.0 mm 0.00 in0.0 mm
03:11 AM 29.7°F-1.3°C 28.4°F-2.0°C 95% 2.9 mph SE4.7 kmh SE 4.0 mph6.4 kmh 29.87 in1011.5 mb 0.00 in0.0 mm 0.00 in0.0 mm 0.00 in0.0 mm
03:10 AM 29.7°F-1.3°C 28.4°F-2.0°C 95% 2.9 mph E4.7 kmh E 6.9 mph11.1 kmh 29.87 in1011.5 mb 0.00 in0.0 mm 0.00 in0.0 mm 0.00 in0.0 mm
03:09 AM 29.7°F-1.3°C 28.4°F-2.0°C 95% 2.9 mph SE4.7 kmh SE 8.1 mph13.0 kmh 29.88 in1011.9 mb 0.00 in0.0 mm 0.00 in0.0 mm 0.00 in0.0 mm
03:08 AM 29.5°F-1.4°C 28.2°F-2.1°C 95% 2.9 mph SE4.7 kmh SE 8.1 mph13.0 kmh 29.88 in1011.9 mb 0.00 in0.0 mm 0.00 in0.0 mm 0.00 in0.0 mm
03:07 AM 29.5°F-1.4°C 28.2°F-2.1°C 95% 2.9 mph NE4.7 kmh NE 4.0 mph6.4 kmh 29.88 in1011.9 mb 0.00 in0.0 mm 0.00 in0.0 mm 0.00 in0.0 mm
03:06 AM 29.7°F-1.3°C 28.4°F-2.0°C 95% 2.9 mph SSE4.7 kmh SSE 4.0 mph6.4 kmh 29.88 in1011.9 mb 0.00 in0.0 mm 0.00 in0.0 mm 0.00 in0.0 mm
03:05 AM 29.5°F-1.4°C 28.2°F-2.1°C 95% 2.9 mph N4.7 kmh N 4.9 mph7.9 kmh 29.88 in1011.9 mb 0.00 in0.0 mm 0.00 in0.0 mm 0.00 in0.0 mm
03:04 AM 29.5°F-1.4°C 28.2°F-2.1°C 95% 2.9 mph NE4.7 kmh NE 6.9 mph11.1 kmh 29.88 in1011.9 mb 0.00 in0.0 mm 0.00 in0.0 mm 0.00 in0.0 mm
03:03 AM 29.5°F-1.4°C 28.2°F-2.1°C 95% 2.9 mph NE4.7 kmh NE 6.9 mph11.1 kmh 29.88 in1011.9 mb 0.00 in0.0 mm 0.00 in0.0 mm 0.00 in0.0 mm
03:02 AM 29.5°F-1.4°C 28.2°F-2.1°C 95% 2.9 mph ESE4.7 kmh ESE 4.9 mph7.9 kmh 29.88 in1011.9 mb 0.00 in0.0 mm 0.00 in0.0 mm 0.00 in0.0 mm
03:01 AM 29.5°F-1.4°C 28.2°F-2.1°C 95% 2.9 mph NE4.7 kmh NE 6.0 mph9.7 kmh 29.89 in1012.2 mb 0.00 in0.0 mm 0.00 in0.0 mm 0.00 in0.0 mm
03:00 AM 29.5°F-1.4°C 28.2°F-2.1°C 95% 2.9 mph E4.7 kmh E 13.0 mph20.9 kmh 29.89 in1012.2 mb 0.00 in0.0 mm 0.00 in0.0 mm 0.00 in0.0 mm
02:59 AM 29.5°F-1.4°C 28.2°F-2.1°C 95% 2.9 mph NE4.7 kmh NE 13.0 mph20.9 kmh 29.88 in1011.9 mb 0.00 in0.0 mm 0.00 in0.0 mm 0.00 in0.0 mm
02:58 AM 29.5°F-1.4°C 28.2°F-2.1°C 95% 2.9 mph E4.7 kmh E 8.1 mph13.0 kmh 29.89 in1012.2 mb 0.00 in0.0 mm 0.00 in0.0 mm 0.00 in0.0 mm
02:57 AM 29.5°F-1.4°C 28.2°F-2.1°C 95% 2.9 mph NNW4.7 kmh NNW 2.9 mph4.7 kmh 29.89 in1012.2 mb 0.00 in0.0 mm 0.00 in0.0 mm 0.00 in0.0 mm
02:56 AM 29.5°F-1.4°C 28.2°F-2.1°C 95% 2.9 mph E4.7 kmh E 4.0 mph6.4 kmh 29.89 in1012.2 mb 0.00 in0.0 mm 0.00 in0.0 mm 0.00 in0.0 mm
02:55 AM 29.5°F-1.4°C 28.2°F-2.1°C 95% 4.0 mph NNE6.4 kmh NNE 10.1 mph16.3 kmh 29.89 in1012.2 mb 0.00 in0.0 mm 0.00 in0.0 mm 0.00 in0.0 mm
02:54 AM 29.5°F-1.4°C 28.2°F-2.1°C 95% 2.9 mph E4.7 kmh E 8.9 mph14.3 kmh 29.89 in1012.2 mb 0.00 in0.0 mm 0.00 in0.0 mm 0.00 in0.0 mm
02:53 AM 29.5°F-1.4°C 28.2°F-2.1°C 95% 2.9 mph ENE4.7 kmh ENE 4.9 mph7.9 kmh 29.89 in1012.2 mb 0.00 in0.0 mm 0.00 in0.0 mm 0.00 in0.0 mm
02:52 AM 29.5°F-1.4°C 28.2°F-2.1°C 95% 2.9 mph ENE4.7 kmh ENE 4.9 mph7.9 kmh 29.89 in1012.2 mb 0.00 in0.0 mm 0.00 in0.0 mm 0.00 in0.0 mm
02:51 AM 29.5°F-1.4°C 28.2°F-2.1°C 95% 2.9 mph SE4.7 kmh SE 8.9 mph14.3 kmh 29.89 in1012.2 mb 0.00 in0.0 mm 0.00 in0.0 mm 0.00 in0.0 mm
02:50 AM 29.5°F-1.4°C 28.2°F-2.1°C 95% 2.9 mph ESE4.7 kmh ESE 8.1 mph13.0 kmh 29.89 in1012.2 mb 0.00 in0.0 mm 0.00 in0.0 mm 0.00 in0.0 mm
02:49 AM 29.5°F-1.4°C 28.2°F-2.1°C 95% 2.9 mph NE4.7 kmh NE 4.9 mph7.9 kmh 29.89 in1012.2 mb 0.00 in0.0 mm 0.00 in0.0 mm 0.00 in0.0 mm
02:48 AM 29.5°F-1.4°C 28.2°F-2.1°C 95% 2.9 mph SE4.7 kmh SE 9.0 mph14.5 kmh 29.89 in1012.2 mb 0.00 in0.0 mm 0.00 in0.0 mm 0.00 in0.0 mm
02:47 AM 29.5°F-1.4°C 28.2°F-2.1°C 95% 2.0 mph E3.2 kmh E 9.0 mph14.5 kmh 29.89 in1012.2 mb 0.00 in0.0 mm 0.00 in0.0 mm 0.00 in0.0 mm
02:46 AM 29.5°F-1.4°C 28.2°F-2.1°C 95% 2.0 mph SE3.2 kmh SE 8.1 mph13.0 kmh 29.89 in1012.2 mb 0.00 in0.0 mm 0.00 in0.0 mm 0.00 in0.0 mm
02:45 AM 29.5°F-1.4°C 28.2°F-2.1°C 95% 2.0 mph SE3.2 kmh SE 4.9 mph7.9 kmh 29.89 in1012.2 mb 0.00 in0.0 mm 0.00 in0.0 mm 0.00 in0.0 mm
02:44 AM 29.5°F-1.4°C 28.2°F-2.1°C 95% 2.0 mph NE3.2 kmh NE 2.9 mph4.7 kmh 29.89 in1012.2 mb 0.00 in0.0 mm 0.00 in0.0 mm 0.00 in0.0 mm
02:43 AM 29.5°F-1.4°C 28.2°F-2.1°C 95% 2.0 mph E3.2 kmh E 6.0 mph9.7 kmh 29.90 in1012.5 mb 0.00 in0.0 mm 0.00 in0.0 mm 0.00 in0.0 mm
02:42 AM 29.5°F-1.4°C 28.2°F-2.1°C 95% 2.0 mph ESE3.2 kmh ESE 6.0 mph9.7 kmh 29.90 in1012.5 mb 0.00 in0.0 mm 0.00 in0.0 mm 0.00 in0.0 mm
02:41 AM 29.5°F-1.4°C 28.2°F-2.1°C 95% 2.0 mph SSE3.2 kmh SSE 4.9 mph7.9 kmh 29.90 in1012.5 mb 0.00 in0.0 mm 0.00 in0.0 mm 0.00 in0.0 mm
02:40 AM 29.5°F-1.4°C 28.2°F-2.1°C 95% 2.0 mph NE3.2 kmh NE 2.9 mph4.7 kmh 29.90 in1012.5 mb 0.00 in0.0 mm 0.00 in0.0 mm 0.00 in0.0 mm
02:39 AM 29.5°F-1.4°C 28.2°F-2.1°C 95% 2.9 mph WNW4.7 kmh WNW 4.0 mph6.4 kmh 29.90 in1012.5 mb 0.00 in0.0 mm 0.00 in0.0 mm 0.00 in0.0 mm
02:38 AM 29.5°F-1.4°C 28.2°F-2.1°C 95% 2.0 mph NE3.2 kmh NE 2.9 mph4.7 kmh 29.91 in1012.9 mb 0.00 in0.0 mm 0.00 in0.0 mm 0.00 in0.0 mm
02:37 AM 29.5°F-1.4°C 28.2°F-2.1°C 95% 2.9 mph NE4.7 kmh NE 6.0 mph9.7 kmh 29.91 in1012.9 mb 0.00 in0.0 mm 0.00 in0.0 mm 0.00 in0.0 mm
02:36 AM 29.5°F-1.4°C 28.2°F-2.1°C 95% 2.9 mph NNW4.7 kmh NNW 6.0 mph9.7 kmh 29.91 in1012.9 mb 0.00 in0.0 mm 0.00 in0.0 mm 0.00 in0.0 mm
02:35 AM 29.5°F-1.4°C 28.2°F-2.1°C 95% 2.9 mph NNE4.7 kmh NNE 6.0 mph9.7 kmh 29.91 in1012.9 mb 0.00 in0.0 mm 0.00 in0.0 mm 0.00 in0.0 mm
02:34 AM 29.5°F-1.4°C 28.2°F-2.1°C 95% 2.9 mph E4.7 kmh E 6.0 mph9.7 kmh 29.91 in1012.9 mb 0.00 in0.0 mm 0.00 in0.0 mm 0.00 in0.0 mm
02:33 AM 29.5°F-1.4°C 28.2°F-2.1°C 95% 2.0 mph SW3.2 kmh SW 4.0 mph6.4 kmh 29.91 in1012.9 mb 0.00 in0.0 mm 0.00 in0.0 mm 0.00 in0.0 mm
02:31 AM 29.5°F-1.4°C 28.2°F-2.1°C 95% 2.0 mph N3.2 kmh N 6.0 mph9.7 kmh 29.91 in1012.9 mb 0.00 in0.0 mm 0.00 in0.0 mm 0.00 in0.0 mm
02:30 AM 29.5°F-1.4°C 28.2°F-2.1°C 95% 2.0 mph N3.2 kmh N 8.9 mph14.3 kmh 29.91 in1012.9 mb 0.00 in0.0 mm 0.00 in0.0 mm 0.00 in0.0 mm
02:29 AM 29.5°F-1.4°C 28.2°F-2.1°C 95% 2.0 mph ENE3.2 kmh ENE 8.9 mph14.3 kmh 29.91 in1012.9 mb 0.00 in0.0 mm 0.00 in0.0 mm 0.00 in0.0 mm
02:28 AM 29.5°F-1.4°C 28.2°F-2.1°C 95% 2.0 mph SE3.2 kmh SE 4.0 mph6.4 kmh 29.91 in1012.9 mb 0.00 in0.0 mm 0.00 in0.0 mm 0.00 in0.0 mm
02:27 AM 29.5°F-1.4°C 28.2°F-2.1°C 95% 2.0 mph E3.2 kmh E 4.0 mph6.4 kmh 29.91 in1012.9 mb 0.00 in0.0 mm 0.00 in0.0 mm 0.00 in0.0 mm
02:26 AM 29.5°F-1.4°C 28.2°F-2.1°C 95% 2.0 mph ENE3.2 kmh ENE 4.0 mph6.4 kmh 29.91 in1012.9 mb 0.00 in0.0 mm 0.00 in0.0 mm 0.00 in0.0 mm
02:25 AM 29.5°F-1.4°C 28.2°F-2.1°C 95% 2.0 mph E3.2 kmh E 11.0 mph17.7 kmh 29.91 in1012.9 mb 0.00 in0.0 mm 0.00 in0.0 mm 0.00 in0.0 mm
02:24 AM 29.5°F-1.4°C 28.2°F-2.1°C 95% 2.0 mph E3.2 kmh E 2.9 mph4.7 kmh 29.91 in1012.9 mb 0.00 in0.0 mm 0.00 in0.0 mm 0.00 in0.0 mm
02:23 AM 29.5°F-1.4°C 28.2°F-2.1°C 95% 2.0 mph NNE3.2 kmh NNE 2.0 mph3.2 kmh 29.91 in1012.9 mb 0.00 in0.0 mm 0.00 in0.0 mm 0.00 in0.0 mm
02:22 AM 29.5°F-1.4°C 28.2°F-2.1°C 95% 2.0 mph ENE3.2 kmh ENE 4.0 mph6.4 kmh 29.91 in1012.9 mb 0.00 in0.0 mm 0.00 in0.0 mm 0.00 in0.0 mm
02:21 AM 29.5°F-1.4°C 28.2°F-2.1°C 95% 2.0 mph E3.2 kmh E 6.0 mph9.7 kmh 29.91 in1012.9 mb 0.00 in0.0 mm 0.00 in0.0 mm 0.00 in0.0 mm
02:20 AM 29.5°F-1.4°C 28.2°F-2.1°C 95% 2.0 mph NE3.2 kmh NE 4.0 mph6.4 kmh 29.91 in1012.9 mb 0.00 in0.0 mm 0.00 in0.0 mm 0.00 in0.0 mm
02:19 AM 29.5°F-1.4°C 28.2°F-2.1°C 95% 2.0 mph SSW3.2 kmh SSW 4.0 mph6.4 kmh 29.92 in1013.2 mb 0.00 in0.0 mm 0.00 in0.0 mm 0.00 in0.0 mm
02:18 AM 29.5°F-1.4°C 28.2°F-2.1°C 95% 2.0 mph NNE3.2 kmh NNE 2.0 mph3.2 kmh 29.92 in1013.2 mb 0.00 in0.0 mm 0.00 in0.0 mm 0.00 in0.0 mm
02:17 AM 29.5°F-1.4°C 28.2°F-2.1°C 95% 2.0 mph NNW3.2 kmh NNW 2.0 mph3.2 kmh 29.91 in1012.9 mb 0.00 in0.0 mm 0.00 in0.0 mm 0.00 in0.0 mm
02:16 AM 29.5°F-1.4°C 28.2°F-2.1°C 95% 2.0 mph NE3.2 kmh NE 2.9 mph4.7 kmh 29.92 in1013.2 mb 0.00 in0.0 mm 0.00 in0.0 mm 0.00 in0.0 mm
02:15 AM 29.5°F-1.4°C 28.2°F-2.1°C 95% 2.0 mph E3.2 kmh E 2.9 mph4.7 kmh 29.92 in1013.2 mb 0.00 in0.0 mm 0.00 in0.0 mm 0.00 in0.0 mm
02:14 AM 29.3°F-1.5°C 28.0°F-2.2°C 95% 2.0 mph E3.2 kmh E 10.1 mph16.3 kmh 29.92 in1013.2 mb 0.00 in0.0 mm 0.00 in0.0 mm 0.00 in0.0 mm
02:13 AM 29.3°F-1.5°C 28.0°F-2.2°C 95% 2.0 mph E3.2 kmh E 8.9 mph14.3 kmh 29.92 in1013.2 mb 0.00 in0.0 mm 0.00 in0.0 mm 0.00 in0.0 mm
02:12 AM 29.3°F-1.5°C 28.0°F-2.2°C 95% 2.0 mph E3.2 kmh E 8.1 mph13.0 kmh 29.93 in1013.5 mb 0.00 in0.0 mm 0.00 in0.0 mm 0.00 in0.0 mm
02:11 AM 29.3°F-1.5°C 28.0°F-2.2°C 95% 2.0 mph SE3.2 kmh SE 2.9 mph4.7 kmh 29.93 in1013.5 mb 0.00 in0.0 mm 0.00 in0.0 mm 0.00 in0.0 mm
02:10 AM 29.3°F-1.5°C 28.0°F-2.2°C 95% 2.0 mph S3.2 kmh S 4.9 mph7.9 kmh 29.93 in1013.5 mb 0.00 in0.0 mm 0.00 in0.0 mm 0.00 in0.0 mm
02:09 AM 29.1°F-1.6°C 27.9°F-2.3°C 95% 2.0 mph NE3.2 kmh NE 6.9 mph11.1 kmh 29.93 in1013.5 mb 0.00 in0.0 mm 0.00 in0.0 mm 0.00 in0.0 mm
02:08 AM 29.1°F-1.6°C 27.9°F-2.3°C 95% 2.0 mph SE3.2 kmh SE 6.9 mph11.1 kmh 29.94 in1013.9 mb 0.00 in0.0 mm 0.00 in0.0 mm 0.00 in0.0 mm
02:07 AM 29.1°F-1.6°C 27.9°F-2.3°C 95% 2.0 mph S3.2 kmh S 2.9 mph4.7 kmh 29.93 in1013.5 mb 0.00 in0.0 mm 0.00 in0.0 mm 0.00 in0.0 mm
02:06 AM 29.1°F-1.6°C 27.9°F-2.3°C 95% 2.0 mph NW3.2 kmh NW 2.9 mph4.7 kmh 29.93 in1013.5 mb 0.00 in0.0 mm 0.00 in0.0 mm 0.00 in0.0 mm
02:05 AM 29.1°F-1.6°C 27.9°F-2.3°C 95% 2.0 mph NW3.2 kmh NW 2.9 mph4.7 kmh 29.93 in1013.5 mb 0.00 in0.0 mm 0.00 in0.0 mm 0.00 in0.0 mm
02:04 AM 29.1°F-1.6°C 27.9°F-2.3°C 95% 2.0 mph S3.2 kmh S 4.9 mph7.9 kmh 29.93 in1013.5 mb 0.00 in0.0 mm 0.00 in0.0 mm 0.00 in0.0 mm
02:03 AM 28.9°F-1.7°C 27.7°F-2.4°C 95% 2.0 mph NNE3.2 kmh NNE 4.0 mph6.4 kmh 29.93 in1013.5 mb 0.00 in0.0 mm 0.00 in0.0 mm 0.00 in0.0 mm
02:02 AM 28.9°F-1.7°C 27.7°F-2.4°C 95% 2.0 mph ENE3.2 kmh ENE 0.9 mph1.4 kmh 29.93 in1013.5 mb 0.00 in0.0 mm 0.00 in0.0 mm 0.00 in0.0 mm
02:01 AM 28.9°F-1.7°C 27.7°F-2.4°C 95% 2.9 mph ENE4.7 kmh ENE 2.0 mph3.2 kmh 29.93 in1013.5 mb 0.00 in0.0 mm 0.00 in0.0 mm 0.00 in0.0 mm
02:00 AM 28.9°F-1.7°C 27.7°F-2.4°C 95% 2.9 mph ENE4.7 kmh ENE 11.0 mph17.7 kmh 29.93 in1013.5 mb 0.00 in0.0 mm 0.00 in0.0 mm 0.00 in0.0 mm
01:59 AM 28.9°F-1.7°C 27.7°F-2.4°C 95% 2.9 mph ESE4.7 kmh ESE 11.0 mph17.7 kmh 29.93 in1013.5 mb 0.00 in0.0 mm 0.00 in0.0 mm 0.00 in0.0 mm
01:58 AM 28.9°F-1.7°C 27.7°F-2.4°C 95% 2.0 mph ENE3.2 kmh ENE 6.9 mph11.1 kmh 29.93 in1013.5 mb 0.00 in0.0 mm 0.00 in0.0 mm 0.00 in0.0 mm
01:57 AM 28.9°F-1.7°C 27.7°F-2.4°C 95% 2.0 mph E3.2 kmh E 4.9 mph7.9 kmh 29.93 in1013.5 mb 0.00 in0.0 mm 0.00 in0.0 mm 0.00 in0.0 mm
01:56 AM 28.8°F-1.8°C 27.5°F-2.5°C 95% 2.0 mph SE3.2 kmh SE 4.0 mph6.4 kmh 29.93 in1013.5 mb 0.00 in0.0 mm 0.00 in0.0 mm 0.00 in0.0 mm
01:55 AM 28.8°F-1.8°C 27.5°F-2.5°C 95% 2.0 mph SE3.2 kmh SE 6.9 mph11.1 kmh 29.93 in1013.5 mb 0.00 in0.0 mm 0.00 in0.0 mm 0.00 in0.0 mm
01:54 AM 28.8°F-1.8°C 27.5°F-2.5°C 95% 2.0 mph NNE3.2 kmh NNE 2.0 mph3.2 kmh 29.93 in1013.5 mb 0.00 in0.0 mm 0.00 in0.0 mm 0.00 in0.0 mm
01:53 AM 28.8°F-1.8°C 27.5°F-2.5°C 95% 2.0 mph NE3.2 kmh NE 11.0 mph17.7 kmh 29.93 in1013.5 mb 0.00 in0.0 mm 0.00 in0.0 mm 0.00 in0.0 mm
01:52 AM 28.8°F-1.8°C 27.5°F-2.5°C 95% 2.0 mph NNE3.2 kmh NNE 11.0 mph17.7 kmh 29.93 in1013.5 mb 0.00 in0.0 mm 0.00 in0.0 mm 0.00 in0.0 mm
01:51 AM 28.8°F-1.8°C 27.5°F-2.5°C 95% 0.9 mph E1.4 kmh E 5.0 mph8.0 kmh 29.93 in1013.5 mb 0.00 in0.0 mm 0.00 in0.0 mm 0.00 in0.0 mm
01:50 AM 28.8°F-1.8°C 27.5°F-2.5°C 95% 0.9 mph SE1.4 kmh SE 5.0 mph8.0 kmh 29.93 in1013.5 mb 0.00 in0.0 mm 0.00 in0.0 mm 0.00 in0.0 mm
01:49 AM 28.8°F-1.8°C 27.5°F-2.5°C 95% 0.9 mph NNE1.4 kmh NNE 2.0 mph3.2 kmh 29.94 in1013.9 mb 0.00 in0.0 mm 0.00 in0.0 mm 0.00 in0.0 mm
01:48 AM 28.8°F-1.8°C 27.5°F-2.5°C 95% 0.9 mph N1.4 kmh N 2.9 mph4.7 kmh 29.94 in1013.9 mb 0.00 in0.0 mm 0.00 in0.0 mm 0.00 in0.0 mm
01:47 AM 28.6°F-1.9°C 27.3°F-2.6°C 95% 0.9 mph ENE1.4 kmh ENE 2.9 mph4.7 kmh 29.94 in1013.9 mb 0.00 in0.0 mm 0.00 in0.0 mm 0.00 in0.0 mm
01:46 AM 28.8°F-1.8°C 27.5°F-2.5°C 95% 0.9 mph NNE1.4 kmh NNE 4.0 mph6.4 kmh 29.95 in1014.2 mb 0.00 in0.0 mm 0.00 in0.0 mm 0.00 in0.0 mm
01:45 AM 28.6°F-1.9°C 27.3°F-2.6°C 95% 0.9 mph ENE1.4 kmh ENE 4.0 mph6.4 kmh 29.95 in1014.2 mb 0.00 in0.0 mm 0.00 in0.0 mm 0.00 in0.0 mm
01:44 AM 28.6°F-1.9°C 27.3°F-2.6°C 95% 0.9 mph NE1.4 kmh NE 2.0 mph3.2 kmh 29.95 in1014.2 mb 0.00 in0.0 mm 0.00 in0.0 mm 0.00 in0.0 mm
01:43 AM 28.6°F-1.9°C 27.3°F-2.6°C 95% 0.9 mph NE1.4 kmh NE 2.9 mph4.7 kmh 29.95 in1014.2 mb 0.00 in0.0 mm 0.00 in0.0 mm 0.00 in0.0 mm
01:42 AM 28.6°F-1.9°C 27.3°F-2.6°C 95% 0.9 mph S1.4 kmh S 2.9 mph4.7 kmh 29.96 in1014.6 mb 0.00 in0.0 mm 0.00 in0.0 mm 0.00 in0.0 mm
01:41 AM 28.6°F-1.9°C 27.3°F-2.6°C 95% 0.9 mph NE1.4 kmh NE 2.0 mph3.2 kmh 29.95 in1014.2 mb 0.00 in0.0 mm 0.00 in0.0 mm 0.00 in0.0 mm
01:40 AM 28.6°F-1.9°C 27.3°F-2.6°C 95% 0.9 mph ENE1.4 kmh ENE 2.0 mph3.2 kmh 29.95 in1014.2 mb 0.00 in0.0 mm 0.00 in0.0 mm 0.00 in0.0 mm
01:39 AM 28.6°F-1.9°C 27.3°F-2.6°C 95% 2.0 mph ENE3.2 kmh ENE 0.9 mph1.4 kmh 29.95 in1014.2 mb 0.00 in0.0 mm 0.00 in0.0 mm 0.00 in0.0 mm
01:38 AM 28.6°F-1.9°C 27.3°F-2.6°C 95% 2.0 mph ENE3.2 kmh ENE 2.9 mph4.7 kmh 29.95 in1014.2 mb 0.00 in0.0 mm 0.00 in0.0 mm 0.00 in0.0 mm
01:37 AM 28.6°F-1.9°C 27.3°F-2.6°C 95% 2.0 mph E3.2 kmh E 4.0 mph6.4 kmh 29.95 in1014.2 mb 0.00 in0.0 mm 0.00 in0.0 mm 0.00 in0.0 mm
01:36 AM 28.6°F-1.9°C 27.3°F-2.6°C 95% 2.0 mph NNE3.2 kmh NNE 2.0 mph3.2 kmh 29.96 in1014.6 mb 0.00 in0.0 mm 0.00 in0.0 mm 0.00 in0.0 mm
01:35 AM 28.6°F-1.9°C 27.3°F-2.6°C 95% 2.0 mph NNE3.2 kmh NNE 2.0 mph3.2 kmh 29.95 in1014.2 mb 0.00 in0.0 mm 0.00 in0.0 mm 0.00 in0.0 mm
01:34 AM 28.6°F-1.9°C 27.3°F-2.6°C 95% 2.0 mph NNE3.2 kmh NNE 2.9 mph4.7 kmh 29.95 in1014.2 mb 0.00 in0.0 mm 0.00 in0.0 mm 0.00 in0.0 mm
01:33 AM 28.6°F-1.9°C 27.3°F-2.6°C 95% 2.0 mph NNE3.2 kmh NNE 4.0 mph6.4 kmh 29.95 in1014.2 mb 0.00 in0.0 mm 0.00 in0.0 mm 0.00 in0.0 mm
01:32 AM 28.6°F-1.9°C 27.3°F-2.6°C 95% 2.0 mph NNE3.2 kmh NNE 4.0 mph6.4 kmh 29.96 in1014.6 mb 0.00 in0.0 mm 0.00 in0.0 mm 0.00 in0.0 mm
01:31 AM 28.6°F-1.9°C 27.3°F-2.6°C 95% 2.0 mph E3.2 kmh E 8.1 mph13.0 kmh 29.96 in1014.6 mb 0.00 in0.0 mm 0.00 in0.0 mm 0.00 in0.0 mm
01:30 AM 28.6°F-1.9°C 27.3°F-2.6°C 95% 0.9 mph E1.4 kmh E 8.1 mph13.0 kmh 29.96 in1014.6 mb 0.00 in0.0 mm 0.00 in0.0 mm 0.00 in0.0 mm
01:29 AM 28.6°F-1.9°C 27.3°F-2.6°C 95% 0.9 mph ESE1.4 kmh ESE 2.9 mph4.7 kmh 29.96 in1014.6 mb 0.00 in0.0 mm 0.00 in0.0 mm 0.00 in0.0 mm
01:28 AM 28.6°F-1.9°C 27.3°F-2.6°C 95% 0.9 mph ENE1.4 kmh ENE 4.0 mph6.4 kmh 29.96 in1014.6 mb 0.00 in0.0 mm 0.00 in0.0 mm 0.00 in0.0 mm
01:27 AM 28.6°F-1.9°C 27.3°F-2.6°C 95% 2.0 mph ENE3.2 kmh ENE 4.9 mph7.9 kmh 29.96 in1014.6 mb 0.00 in0.0 mm 0.00 in0.0 mm 0.00 in0.0 mm
01:26 AM 28.4°F-2.0°C 27.1°F-2.7°C 95% 2.0 mph NE3.2 kmh NE 2.0 mph3.2 kmh 29.96 in1014.6 mb 0.00 in0.0 mm 0.00 in0.0 mm 0.00 in0.0 mm
01:25 AM 28.4°F-2.0°C 27.1°F-2.7°C 95% 2.0 mph ENE3.2 kmh ENE 2.0 mph3.2 kmh 29.96 in1014.6 mb 0.00 in0.0 mm 0.00 in0.0 mm 0.00 in0.0 mm
01:24 AM 28.4°F-2.0°C 27.1°F-2.7°C 95% 2.0 mph NE3.2 kmh NE 2.0 mph3.2 kmh 29.97 in1014.9 mb 0.00 in0.0 mm 0.00 in0.0 mm 0.00 in0.0 mm
01:23 AM 28.4°F-2.0°C 27.1°F-2.7°C 95% 2.0 mph NE3.2 kmh NE 4.0 mph6.4 kmh 29.96 in1014.6 mb 0.00 in0.0 mm 0.00 in0.0 mm 0.00 in0.0 mm
01:22 AM 28.4°F-2.0°C 27.1°F-2.7°C 95% 2.0 mph NNE3.2 kmh NNE 2.9 mph4.7 kmh 29.97 in1014.9 mb 0.00 in0.0 mm 0.00 in0.0 mm 0.00 in0.0 mm
01:21 AM 28.4°F-2.0°C 27.1°F-2.7°C 95% 2.0 mph NE3.2 kmh NE 2.9 mph4.7 kmh 29.97 in1014.9 mb 0.00 in0.0 mm 0.00 in0.0 mm 0.00 in0.0 mm
01:20 AM 28.4°F-2.0°C 27.1°F-2.7°C 95% 2.0 mph N3.2 kmh N 2.9 mph4.7 kmh 29.97 in1014.9 mb 0.00 in0.0 mm 0.00 in0.0 mm 0.00 in0.0 mm
01:19 AM 28.4°F-2.0°C 27.1°F-2.7°C 95% 2.0 mph NNE3.2 kmh NNE 2.9 mph4.7 kmh 29.97 in1014.9 mb 0.00 in0.0 mm 0.00 in0.0 mm 0.00 in0.0 mm
01:18 AM 28.4°F-2.0°C 27.1°F-2.7°C 95% 2.0 mph NE3.2 kmh NE 4.9 mph7.9 kmh 29.96 in1014.6 mb 0.00 in0.0 mm 0.00 in0.0 mm 0.00 in0.0 mm
01:17 AM 28.4°F-2.0°C 27.1°F-2.7°C 95% 2.0 mph ENE3.2 kmh ENE 4.9 mph7.9 kmh 29.96 in1014.6 mb 0.00 in0.0 mm 0.00 in0.0 mm 0.00 in0.0 mm
01:16 AM 28.4°F-2.0°C 27.0°F-2.8°C 94% 2.0 mph NE3.2 kmh NE 4.9 mph7.9 kmh 29.96 in1014.6 mb 0.00 in0.0 mm 0.00 in0.0 mm 0.00 in0.0 mm
01:15 AM 28.4°F-2.0°C 27.0°F-2.8°C 94% 2.0 mph ENE3.2 kmh ENE 4.0 mph6.4 kmh 29.96 in1014.6 mb 0.00 in0.0 mm 0.00 in0.0 mm 0.00 in0.0 mm
01:14 AM 28.2°F-2.1°C 26.8°F-2.9°C 94% 2.0 mph NE3.2 kmh NE 4.9 mph7.9 kmh 29.96 in1014.6 mb 0.00 in0.0 mm 0.00 in0.0 mm 0.00 in0.0 mm
01:13 AM 28.4°F-2.0°C 27.0°F-2.8°C 94% 2.0 mph S3.2 kmh S 4.9 mph7.9 kmh 29.96 in1014.6 mb 0.00 in0.0 mm 0.00 in0.0 mm 0.00 in0.0 mm
01:12 AM 28.2°F-2.1°C 26.8°F-2.9°C 94% 2.0 mph NNW3.2 kmh NNW 2.0 mph3.2 kmh 29.96 in1014.6 mb 0.00 in0.0 mm 0.00 in0.0 mm 0.00 in0.0 mm
01:11 AM 28.2°F-2.1°C 26.8°F-2.9°C 94% 2.0 mph ENE3.2 kmh ENE 0.9 mph1.4 kmh 29.96 in1014.6 mb 0.00 in0.0 mm 0.00 in0.0 mm 0.00 in0.0 mm
01:10 AM 28.2°F-2.1°C 26.8°F-2.9°C 94% 2.0 mph ENE3.2 kmh ENE 2.0 mph3.2 kmh 29.96 in1014.6 mb 0.00 in0.0 mm 0.00 in0.0 mm 0.00 in0.0 mm
01:09 AM 28.4°F-2.0°C 27.0°F-2.8°C 94% 2.0 mph ENE3.2 kmh ENE 2.0 mph3.2 kmh 29.96 in1014.6 mb 0.00 in0.0 mm 0.00 in0.0 mm 0.00 in0.0 mm
01:08 AM 28.2°F-2.1°C 26.8°F-2.9°C 94% 2.0 mph NE3.2 kmh NE 2.9 mph4.7 kmh 29.96 in1014.6 mb 0.00 in0.0 mm 0.00 in0.0 mm 0.00 in0.0 mm
01:07 AM 28.2°F-2.1°C 26.8°F-2.9°C 94% 2.0 mph E3.2 kmh E 8.1 mph13.0 kmh 29.96 in1014.6 mb 0.00 in0.0 mm 0.00 in0.0 mm 0.00 in0.0 mm
01:06 AM 28.2°F-2.1°C 26.8°F-2.9°C 94% 2.0 mph N3.2 kmh N 4.0 mph6.4 kmh 29.97 in1014.9 mb 0.00 in0.0 mm 0.00 in0.0 mm 0.00 in0.0 mm
01:05 AM 28.2°F-2.1°C 26.8°F-2.9°C 94% 2.0 mph NNE3.2 kmh NNE 4.0 mph6.4 kmh 29.97 in1014.9 mb 0.00 in0.0 mm 0.00 in0.0 mm 0.00 in0.0 mm
01:04 AM 28.2°F-2.1°C 26.8°F-2.9°C 94% 2.0 mph NE3.2 kmh NE 7.0 mph11.3 kmh 29.97 in1014.9 mb 0.00 in0.0 mm 0.00 in0.0 mm 0.00 in0.0 mm
01:03 AM 28.2°F-2.1°C 26.8°F-2.9°C 94% 2.0 mph ENE3.2 kmh ENE 7.0 mph11.3 kmh 29.97 in1014.9 mb 0.00 in0.0 mm 0.00 in0.0 mm 0.00 in0.0 mm
01:02 AM 28.2°F-2.1°C 26.8°F-2.9°C 94% 2.0 mph ENE3.2 kmh ENE 4.0 mph6.4 kmh 29.97 in1014.9 mb 0.00 in0.0 mm 0.00 in0.0 mm 0.00 in0.0 mm
01:01 AM 28.2°F-2.1°C 26.8°F-2.9°C 94% 2.0 mph ENE3.2 kmh ENE 4.0 mph6.4 kmh 29.97 in1014.9 mb 0.00 in0.0 mm 0.00 in0.0 mm 0.00 in0.0 mm
01:00 AM 28.2°F-2.1°C 26.8°F-2.9°C 94% 2.0 mph NE3.2 kmh NE 4.0 mph6.4 kmh 29.98 in1015.2 mb 0.00 in0.0 mm 0.00 in0.0 mm 0.00 in0.0 mm
12:59 AM 28.2°F-2.1°C 26.8°F-2.9°C 94% 2.0 mph NNE3.2 kmh NNE 4.0 mph6.4 kmh 29.98 in1015.2 mb 0.00 in0.0 mm 0.00 in0.0 mm 0.00 in0.0 mm
12:58 AM 28.2°F-2.1°C 26.8°F-2.9°C 94% 2.0 mph N3.2 kmh N 4.9 mph7.9 kmh 29.98 in1015.2 mb 0.00 in0.0 mm 0.00 in0.0 mm 0.00 in0.0 mm
12:57 AM 28.2°F-2.1°C 26.8°F-2.9°C 94% 2.0 mph ENE3.2 kmh ENE 4.9 mph7.9 kmh 29.98 in1015.2 mb 0.00 in0.0 mm 0.00 in0.0 mm 0.00 in0.0 mm
12:56 AM 28.2°F-2.1°C 26.8°F-2.9°C 94% 2.0 mph NNE3.2 kmh NNE 4.9 mph7.9 kmh 29.98 in1015.2 mb 0.00 in0.0 mm 0.00 in0.0 mm 0.00 in0.0 mm
12:55 AM 28.2°F-2.1°C 26.8°F-2.9°C 94% 2.0 mph NE3.2 kmh NE 2.0 mph3.2 kmh 29.98 in1015.2 mb 0.00 in0.0 mm 0.00 in0.0 mm 0.00 in0.0 mm
12:54 AM 28.2°F-2.1°C 26.8°F-2.9°C 94% 2.0 mph NE3.2 kmh NE 6.0 mph9.7 kmh 29.99 in1015.6 mb 0.00 in0.0 mm 0.00 in0.0 mm 0.00 in0.0 mm
12:53 AM 28.2°F-2.1°C 26.8°F-2.9°C 94% 2.0 mph NE3.2 kmh NE 2.0 mph3.2 kmh 29.99 in1015.6 mb 0.00 in0.0 mm 0.00 in0.0 mm 0.00 in0.0 mm
12:52 AM 28.2°F-2.1°C 26.8°F-2.9°C 94% 0.9 mph NNE1.4 kmh NNE 2.0 mph3.2 kmh 29.99 in1015.6 mb 0.00 in0.0 mm 0.00 in0.0 mm 0.00 in0.0 mm
12:51 AM 28.2°F-2.1°C 26.8°F-2.9°C 94% 0.9 mph N1.4 kmh N 2.9 mph4.7 kmh 29.99 in1015.6 mb 0.00 in0.0 mm 0.00 in0.0 mm 0.00 in0.0 mm
12:50 AM 28.2°F-2.1°C 26.8°F-2.9°C 94% 0.9 mph NE1.4 kmh NE 2.9 mph4.7 kmh 29.99 in1015.6 mb 0.00 in0.0 mm 0.00 in0.0 mm 0.00 in0.0 mm
12:49 AM 28.0°F-2.2°C 26.6°F-3.0°C 94% 0.9 mph ENE1.4 kmh ENE 7.0 mph11.3 kmh 30.00 in1015.9 mb 0.00 in0.0 mm 0.00 in0.0 mm 0.00 in0.0 mm
12:48 AM 28.0°F-2.2°C 26.6°F-3.0°C 94% 0.9 mph ENE1.4 kmh ENE 5.0 mph8.0 kmh 30.00 in1015.9 mb 0.00 in0.0 mm 0.00 in0.0 mm 0.00 in0.0 mm
12:47 AM 28.0°F-2.2°C 26.6°F-3.0°C 94% 0.9 mph NW1.4 kmh NW 2.9 mph4.7 kmh 30.00 in1015.9 mb 0.00 in0.0 mm 0.00 in0.0 mm 0.00 in0.0 mm
12:46 AM 28.0°F-2.2°C 26.6°F-3.0°C 94% 0.9 mph E1.4 kmh E 2.9 mph4.7 kmh 30.00 in1015.9 mb 0.00 in0.0 mm 0.00 in0.0 mm 0.00 in0.0 mm
12:45 AM 28.0°F-2.2°C 26.6°F-3.0°C 94% 0.9 mph NE1.4 kmh NE 2.0 mph3.2 kmh 30.00 in1015.9 mb 0.00 in0.0 mm 0.00 in0.0 mm 0.00 in0.0 mm
12:44 AM 28.0°F-2.2°C 26.6°F-3.0°C 94% 0.9 mph NE1.4 kmh NE 2.9 mph4.7 kmh 30.00 in1015.9 mb 0.00 in0.0 mm 0.00 in0.0 mm 0.00 in0.0 mm
12:43 AM 28.0°F-2.2°C 26.6°F-3.0°C 94% 2.0 mph ENE3.2 kmh ENE 2.0 mph3.2 kmh 30.00 in1015.9 mb 0.00 in0.0 mm 0.00 in0.0 mm 0.00 in0.0 mm
12:42 AM 28.0°F-2.2°C 26.6°F-3.0°C 94% 2.0 mph ENE3.2 kmh ENE 2.0 mph3.2 kmh 30.00 in1015.9 mb 0.00 in0.0 mm 0.00 in0.0 mm 0.00 in0.0 mm
12:41 AM 28.0°F-2.2°C 26.6°F-3.0°C 94% 2.0 mph ENE3.2 kmh ENE 2.0 mph3.2 kmh 30.00 in1015.9 mb 0.00 in0.0 mm 0.00 in0.0 mm 0.00 in0.0 mm
12:40 AM 28.0°F-2.2°C 26.6°F-3.0°C 94% 2.0 mph NE3.2 kmh NE 2.0 mph3.2 kmh 30.00 in1015.9 mb 0.00 in0.0 mm 0.00 in0.0 mm 0.00 in0.0 mm
12:39 AM 28.0°F-2.2°C 26.6°F-3.0°C 94% 2.0 mph NE3.2 kmh NE 4.0 mph6.4 kmh 30.01 in1016.3 mb 0.00 in0.0 mm 0.00 in0.0 mm 0.00 in0.0 mm
12:38 AM 28.0°F-2.2°C 26.6°F-3.0°C 94% 2.0 mph NNE3.2 kmh NNE 4.9 mph7.9 kmh 30.01 in1016.3 mb 0.00 in0.0 mm 0.00 in0.0 mm 0.00 in0.0 mm
12:37 AM 28.0°F-2.2°C 26.6°F-3.0°C 94% 2.9 mph NE4.7 kmh NE 4.9 mph7.9 kmh 30.01 in1016.3 mb 0.00 in0.0 mm 0.00 in0.0 mm 0.00 in0.0 mm
12:36 AM 28.0°F-2.2°C 26.6°F-3.0°C 94% 2.9 mph ENE4.7 kmh ENE 2.0 mph3.2 kmh 30.01 in1016.3 mb 0.00 in0.0 mm 0.00 in0.0 mm 0.00 in0.0 mm
12:35 AM 28.0°F-2.2°C 26.6°F-3.0°C 94% 2.9 mph ENE4.7 kmh ENE 4.0 mph6.4 kmh 30.01 in1016.3 mb 0.00 in0.0 mm 0.00 in0.0 mm 0.00 in0.0 mm
12:34 AM 28.0°F-2.2°C 26.6°F-3.0°C 94% 2.9 mph E4.7 kmh E 4.9 mph7.9 kmh 30.01 in1016.3 mb 0.00 in0.0 mm 0.00 in0.0 mm 0.00 in0.0 mm
12:33 AM 28.0°F-2.2°C 26.6°F-3.0°C 94% 2.9 mph NNE4.7 kmh NNE 2.9 mph4.7 kmh 30.01 in1016.3 mb 0.00 in0.0 mm 0.00 in0.0 mm 0.00 in0.0 mm
12:32 AM 28.0°F-2.2°C 26.6°F-3.0°C 94% 2.9 mph N4.7 kmh N 4.0 mph6.4 kmh 30.01 in1016.3 mb 0.00 in0.0 mm 0.00 in0.0 mm 0.00 in0.0 mm
12:31 AM 28.0°F-2.2°C 26.6°F-3.0°C 94% 2.9 mph NE4.7 kmh NE 6.9 mph11.1 kmh 30.01 in1016.3 mb 0.00 in0.0 mm 0.00 in0.0 mm 0.00 in0.0 mm
12:30 AM 28.0°F-2.2°C 26.6°F-3.0°C 94% 2.0 mph NE3.2 kmh NE 6.9 mph11.1 kmh 30.01 in1016.3 mb 0.00 in0.0 mm 0.00 in0.0 mm 0.00 in0.0 mm
12:29 AM 28.0°F-2.2°C 26.6°F-3.0°C 94% 2.0 mph ENE3.2 kmh ENE 6.9 mph11.1 kmh 30.01 in1016.3 mb 0.00 in0.0 mm 0.00 in0.0 mm 0.00 in0.0 mm
12:28 AM 27.9°F-2.3°C 26.4°F-3.1°C 94% 2.0 mph ENE3.2 kmh ENE 6.9 mph11.1 kmh 30.01 in1016.3 mb 0.00 in0.0 mm 0.00 in0.0 mm 0.00 in0.0 mm
12:27 AM 27.9°F-2.3°C 26.4°F-3.1°C 94% 2.0 mph ENE3.2 kmh ENE 6.0 mph9.7 kmh 30.01 in1016.3 mb 0.00 in0.0 mm 0.00 in0.0 mm 0.00 in0.0 mm
12:26 AM 27.9°F-2.3°C 26.4°F-3.1°C 94% 2.0 mph SE3.2 kmh SE 4.0 mph6.4 kmh 30.01 in1016.3 mb 0.00 in0.0 mm 0.00 in0.0 mm 0.00 in0.0 mm
12:25 AM 27.9°F-2.3°C 26.4°F-3.1°C 94% 2.0 mph N3.2 kmh N 2.9 mph4.7 kmh 30.02 in1016.6 mb 0.00 in0.0 mm 0.00 in0.0 mm 0.00 in0.0 mm
12:24 AM 27.9°F-2.3°C 26.4°F-3.1°C 94% 2.0 mph N3.2 kmh N 2.9 mph4.7 kmh 30.02 in1016.6 mb 0.00 in0.0 mm 0.00 in0.0 mm 0.00 in0.0 mm
12:23 AM 27.9°F-2.3°C 26.4°F-3.1°C 94% 2.0 mph NE3.2 kmh NE 4.0 mph6.4 kmh 30.02 in1016.6 mb 0.00 in0.0 mm 0.00 in0.0 mm 0.00 in0.0 mm
12:22 AM 27.9°F-2.3°C 26.4°F-3.1°C 94% 0.9 mph NNE1.4 kmh NNE 4.9 mph7.9 kmh 30.02 in1016.6 mb 0.00 in0.0 mm 0.00 in0.0 mm 0.00 in0.0 mm
12:21 AM 27.9°F-2.3°C 26.4°F-3.1°C 94% 0.9 mph ENE1.4 kmh ENE 4.0 mph6.4 kmh 30.02 in1016.6 mb 0.00 in0.0 mm 0.00 in0.0 mm 0.00 in0.0 mm
12:20 AM 27.9°F-2.3°C 26.4°F-3.1°C 94% 0.9 mph NE1.4 kmh NE 2.9 mph4.7 kmh 30.02 in1016.6 mb 0.00 in0.0 mm 0.00 in0.0 mm 0.00 in0.0 mm
12:19 AM 27.9°F-2.3°C 26.4°F-3.1°C 94% 0.9 mph NE1.4 kmh NE 2.9 mph4.7 kmh 30.02 in1016.6 mb 0.00 in0.0 mm 0.00 in0.0 mm 0.00 in0.0 mm
12:18 AM 27.9°F-2.3°C 26.4°F-3.1°C 94% 0.9 mph NE1.4 kmh NE 4.0 mph6.4 kmh 30.02 in1016.6 mb 0.00 in0.0 mm 0.00 in0.0 mm 0.00 in0.0 mm
12:17 AM 27.9°F-2.3°C 26.4°F-3.1°C 94% 0.9 mph ENE1.4 kmh ENE 2.9 mph4.7 kmh 30.03 in1016.9 mb 0.00 in0.0 mm 0.00 in0.0 mm 0.00 in0.0 mm
12:16 AM 27.9°F-2.3°C 26.4°F-3.1°C 94% 0.9 mph ENE1.4 kmh ENE 2.0 mph3.2 kmh 30.03 in1016.9 mb 0.00 in0.0 mm 0.00 in0.0 mm 0.00 in0.0 mm
12:15 AM 27.9°F-2.3°C 26.4°F-3.1°C 94% 0.9 mph ENE1.4 kmh ENE 2.9 mph4.7 kmh 30.03 in1016.9 mb 0.00 in0.0 mm 0.00 in0.0 mm 0.00 in0.0 mm
12:14 AM 27.9°F-2.3°C 26.4°F-3.1°C 94% 0.9 mph ENE1.4 kmh ENE 2.9 mph4.7 kmh 30.03 in1016.9 mb 0.00 in0.0 mm 0.00 in0.0 mm 0.00 in0.0 mm
12:13 AM 27.9°F-2.3°C 26.4°F-3.1°C 94% 0.9 mph ENE1.4 kmh ENE 2.9 mph4.7 kmh 30.03 in1016.9 mb 0.00 in0.0 mm 0.00 in0.0 mm 0.00 in0.0 mm
12:12 AM 27.9°F-2.3°C 26.4°F-3.1°C 94% 0.9 mph ENE1.4 kmh ENE 2.9 mph4.7 kmh 30.03 in1016.9 mb 0.00 in0.0 mm 0.00 in0.0 mm 0.00 in0.0 mm
12:11 AM 27.9°F-2.3°C 26.4°F-3.1°C 94% 0.9 mph NNE1.4 kmh NNE 4.9 mph7.9 kmh 30.03 in1016.9 mb 0.00 in0.0 mm 0.00 in0.0 mm 0.00 in0.0 mm
12:10 AM 27.9°F-2.3°C 26.4°F-3.1°C 94% 0.9 mph NNE1.4 kmh NNE 4.0 mph6.4 kmh 30.04 in1017.3 mb 0.00 in0.0 mm 0.00 in0.0 mm 0.00 in0.0 mm
12:09 AM 27.9°F-2.3°C 26.4°F-3.1°C 94% 0.9 mph NNE1.4 kmh NNE 2.9 mph4.7 kmh 30.04 in1017.3 mb 0.00 in0.0 mm 0.00 in0.0 mm 0.00 in0.0 mm
12:08 AM 27.9°F-2.3°C 26.4°F-3.1°C 94% 0.9 mph NNE1.4 kmh NNE 2.0 mph3.2 kmh 30.04 in1017.3 mb 0.00 in0.0 mm 0.00 in0.0 mm 0.00 in0.0 mm
12:07 AM 27.9°F-2.3°C 26.4°F-3.1°C 94% 0.9 mph NNE1.4 kmh NNE 2.0 mph3.2 kmh 30.04 in1017.3 mb 0.00 in0.0 mm 0.00 in0.0 mm 0.00 in0.0 mm
12:06 AM 27.9°F-2.3°C 26.4°F-3.1°C 94% 2.0 mph NNE3.2 kmh NNE 2.9 mph4.7 kmh 30.04 in1017.3 mb 0.00 in0.0 mm 0.00 in0.0 mm 0.00 in0.0 mm
12:05 AM 27.9°F-2.3°C 26.4°F-3.1°C 94% 2.0 mph NNE3.2 kmh NNE 4.9 mph7.9 kmh 30.04 in1017.3 mb 0.00 in0.0 mm 0.00 in0.0 mm 0.00 in0.0 mm
12:04 AM 27.7°F-2.4°C 26.2°F-3.2°C 94% 0.9 mph NE1.4 kmh NE 4.9 mph7.9 kmh 30.05 in1017.6 mb 0.00 in0.0 mm 0.00 in0.0 mm 0.00 in0.0 mm
12:03 AM 27.9°F-2.3°C 26.4°F-3.1°C 94% 0.9 mph NE1.4 kmh NE 2.0 mph3.2 kmh 30.04 in1017.3 mb 0.00 in0.0 mm 0.00 in0.0 mm 0.00 in0.0 mm
12:02 AM 27.7°F-2.4°C 26.2°F-3.2°C 94% 0.9 mph NE1.4 kmh NE 2.9 mph4.7 kmh 30.05 in1017.6 mb 0.00 in0.0 mm 0.00 in0.0 mm 0.00 in0.0 mm
12:01 AM 27.7°F-2.4°C 26.2°F-3.2°C 94% 0.9 mph NE1.4 kmh NE 2.0 mph3.2 kmh 30.04 in1017.3 mb 0.00 in0.0 mm 0.00 in0.0 mm 0.00 in0.0 mm
12:00 AM 27.7°F-2.4°C 26.2°F-3.2°C 94% 0.9 mph NE1.4 kmh NE 4.0 mph6.4 kmh 30.05 in1017.6 mb 0.00 in0.0 mm 0.00 in0.0 mm 0.00 in0.0 mm